Reportería de los sensores del proyecto Esmeraldas Ciudad Inteligente


Elegir rango
Sensor Fecha Gas Humidity PM25 Pressure Temperature
wp36 2022-06-27 12:00:27.0 39.5 2845.0 4275.2 6400.0 26.9
wp6 2022-06-27 12:00:16.0 39.2 5994.3 5990.4 409.6 26.8
wp7 2022-06-27 12:00:13.0 39.4 5328.3 4377.6 4403.2 26.9
wp4 2022-06-27 12:00:08.0 39.2 3638.6 5196.8 358.4 26.9
wp7 2022-06-27 11:00:33.0 39.4 6352.3 5427.2 5401.6 26.8
wp6 2022-06-27 11:00:16.0 39.3 6506.3 1075.2 409.6 26.9
wp4 2022-06-27 11:00:08.0 39.3 6275.3 153.6 4659.2 26.9
wp36 2022-06-27 11:00:08.0 39.5 1846.6 5708.8 3635.2 26.9
wp36 2022-06-27 10:01:07.0 39.5 4816.2 5913.6 2201.6 26.8
wp6 2022-06-27 10:00:17.0 39.3 6378.3 1510.4 409.6 27.0
wp7 2022-06-27 10:00:13.0 39.4 6454.7 5811.2 128.0 26.9
wp4 2022-06-27 10:00:07.0 39.3 5507.3 409.6 6400.0 26.8
wp6 2022-06-27 09:00:17.0 39.3 6096.7 2252.8 409.6 26.8
wp7 2022-06-27 09:00:13.0 39.5 2128.4 153.6 307.2 26.8
wp36 2022-06-27 09:00:08.0 39.6 5865.9 230.4 588.8 26.7
wp4 2022-06-27 09:00:07.0 39.3 5968.4 972.8 2790.4 26.6
wp36 2022-06-27 08:00:48.0 39.5 1206.7 5888.0 716.8 26.7
wp6 2022-06-27 08:00:17.0 39.3 1207.1 1152.0 409.6 26.7
wp7 2022-06-27 08:00:13.0 39.4 1155.6 5632.0 3046.4 26.7
wp4 2022-06-27 08:00:08.0 39.3 6199.0 256.0 307.2 26.6
wp36 2022-06-27 07:01:08.0 39.5 6249.9 5120.0 2252.8 26.5
wp4 2022-06-27 07:00:27.0 39.2 5507.8 5964.8 6246.4 26.5
wp6 2022-06-27 07:00:17.0 39.3 2538.3 435.2 409.6 26.6
wp7 2022-06-27 07:00:13.0 39.4 157.2 4864.0 3123.2 26.6
wp36 2022-06-27 06:01:08.0 39.5 925.1 4070.4 76.8 26.6
wp7 2022-06-27 06:00:33.0 39.4 413.1 3865.6 6425.6 26.6
wp6 2022-06-27 06:00:18.0 39.2 925.5 5913.6 409.6 26.6
wp4 2022-06-27 06:00:07.0 39.2 5763.8 5120.0 5248.0 26.5
wp7 2022-06-27 05:00:33.0 39.4 489.9 3225.6 6502.4 26.6
wp6 2022-06-27 05:00:18.0 39.2 797.5 5299.2 409.6 26.6
wp36 2022-06-27 05:00:08.0 39.5 2819.4 3379.2 4352.0 26.6
wp4 2022-06-27 05:00:07.0 39.2 6327.0 4454.4 5324.8 26.5
wp7 2022-06-27 04:00:33.0 39.4 1846.7 2457.6 4915.2 26.6
wp4 2022-06-27 04:00:27.0 39.2 5200.6 3660.8 6067.2 26.5
wp6 2022-06-27 04:00:18.0 39.2 1002.3 4480.0 409.6 26.6
wp36 2022-06-27 04:00:08.0 39.5 2614.6 2636.8 3763.2 26.6
wp7 2022-06-27 03:00:33.0 39.4 336.3 3353.6 5196.8 26.6
wp6 2022-06-27 03:00:18.0 39.2 131.9 5350.4 409.6 26.6
wp4 2022-06-27 03:00:08.0 39.2 4765.5 4556.8 0.0 26.5
wp36 2022-06-27 03:00:08.0 39.5 2179.4 3558.4 4300.8 26.6
wp7 2022-06-27 02:00:33.0 39.4 899.5 3840.0 5478.4 26.6
wp6 2022-06-27 02:00:18.0 39.2 6506.3 5785.6 409.6 26.5
wp4 2022-06-27 02:00:08.0 39.2 4586.3 4736.0 307.2 26.5
wp36 2022-06-27 02:00:08.0 39.5 2512.2 3993.6 3968.0 26.6
wp6 2022-06-27 01:00:19.0 39.3 899.9 793.6 409.6 26.6
wp7 2022-06-27 01:00:13.0 39.4 720.4 5299.2 179.2 26.6
wp36 2022-06-27 01:00:08.0 39.5 2589.0 5580.8 4761.6 26.6
wp4 2022-06-27 01:00:07.0 39.2 5047.0 6246.4 5734.4 26.5
wp6 2022-06-27 00:00:19.0 39.3 515.9 2457.6 409.6 26.6
wp7 2022-06-27 00:00:13.0 39.5 1641.9 332.8 5990.4 26.6
wp4 2022-06-27 00:00:08.0 39.3 5405.4 1459.2 5043.2 26.5
wp36 2022-06-27 00:00:08.0 39.6 3792.2 588.8 4070.4 26.6
wp7 2022-06-26 23:00:33.0 39.5 1334.8 102.4 537.6 26.6
wp6 2022-06-26 23:00:19.0 39.3 1053.5 2201.6 409.6 26.6
wp4 2022-06-26 23:00:08.0 39.3 5379.8 1126.4 4915.2 26.5
wp36 2022-06-26 23:00:08.0 39.6 3075.4 460.8 4556.8 26.6
wp7 2022-06-26 22:00:13.0 39.4 1565.2 6220.8 640.0 26.6
wp4 2022-06-26 22:00:08.0 39.3 6301.4 716.8 870.4 26.5
wp36 2022-06-26 22:00:08.0 39.5 4048.2 6528.0 4147.2 26.6
wp6 2022-06-26 22:00:00.0 39.3 1360.7 1817.6 409.6 26.6
wp7 2022-06-26 21:01:13.0 39.4 2282.0 5376.0 307.2 26.6
wp6 2022-06-26 21:00:19.0 39.3 1847.1 844.8 409.6 26.6
wp36 2022-06-26 21:00:08.0 39.5 4048.2 5657.6 4633.6 26.6
wp4 2022-06-26 21:00:07.0 39.2 6480.5 6528.0 5964.8 26.5
wp7 2022-06-26 20:00:33.0 39.4 2230.8 3635.2 716.8 26.6
wp4 2022-06-26 20:00:08.0 39.2 182.9 4787.2 2560.0 26.6
wp36 2022-06-26 20:00:08.0 39.5 1872.3 3891.2 307.2 26.6
wp6 2022-06-26 20:00:00.0 39.2 1872.7 5632.0 409.6 26.6
wp7 2022-06-26 19:00:33.0 39.4 2461.2 1331.2 896.0 26.6
wp4 2022-06-26 19:00:08.0 39.2 1360.4 2406.4 2304.0 26.6
wp36 2022-06-26 19:00:08.0 39.5 4099.4 1664.0 5324.8 26.6
wp6 2022-06-26 19:00:00.0 39.2 2794.3 3430.4 409.6 26.6
wp7 2022-06-26 18:00:13.0 39.3 5917.1 6323.2 5913.6 26.6
wp4 2022-06-26 18:00:08.0 39.2 4688.2 819.2 6348.8 26.6
wp36 2022-06-26 18:00:08.0 39.5 925.0 25.6 3993.6 26.7
wp6 2022-06-26 18:00:00.0 39.2 5917.5 1920.0 409.6 26.6
wp7 2022-06-26 17:00:33.0 39.3 5917.1 4019.2 2739.2 26.7
wp4 2022-06-26 17:00:08.0 39.1 720.2 5043.2 716.8 26.7
wp36 2022-06-26 17:00:08.0 39.4 4509.0 4352.0 4121.6 26.7
wp6 2022-06-26 17:00:00.0 39.1 1591.1 6041.6 25.6 26.8
wp7 2022-06-26 16:00:33.0 39.3 822.7 3020.8 2713.6 26.9
wp36 2022-06-26 16:00:08.0 39.4 1206.6 3200.0 4684.8 26.8
wp4 2022-06-26 16:00:07.0 39.1 5328.1 4172.8 76.8 26.7
wp6 2022-06-26 16:00:01.0 39.1 720.7 5350.4 409.6 27.1
wp7 2022-06-26 15:00:53.0 39.3 4125.0 4147.2 5478.4 26.9
wp4 2022-06-26 15:00:08.0 39.1 6249.6 5427.2 2662.4 26.7
wp36 2022-06-26 15:00:08.0 39.4 1846.6 4403.2 6144.0 26.8
wp6 2022-06-26 15:00:01.0 39.1 4688.7 6528.0 409.6 26.9
wp7 2022-06-26 14:13:33.0 39.3 208.3 5580.8 2406.4 27.0
wp36 2022-06-26 14:00:28.0 39.4 5277.1 6220.8 486.4 26.8
wp4 2022-06-26 14:00:07.0 39.2 3919.9 563.2 5350.4 26.8
wp6 2022-06-26 14:00:01.0 39.2 3715.9 1715.2 409.6 26.9
wp7 2022-06-26 13:00:32.0 39.4 2230.8 2483.2 1638.4 27.0
wp4 2022-06-26 13:00:08.0 39.2 4381.1 3456.0 256.0 26.9
wp36 2022-06-26 13:00:08.0 39.5 2563.5 2380.8 665.6 26.9
wp6 2022-06-26 13:00:01.0 39.2 1437.5 4556.8 409.6 27.0
wp7 2022-06-26 12:00:12.0 39.4 1257.9 4147.2 6451.2 26.9
wp36 2022-06-26 12:00:08.0 39.5 6275.4 4198.4 6144.0 26.8
wp4 2022-06-26 12:00:07.0 39.2 566.6 5452.8 4019.2 26.9
wp6 2022-06-26 12:00:01.0 39.2 1975.1 6425.6 409.6 27.0
wp7 2022-06-26 11:00:12.0 39.4 592.3 5478.4 6144.0 26.8
wp36 2022-06-26 11:00:08.0 39.5 105.8 5504.0 1689.6 26.9
wp4 2022-06-26 11:00:07.0 39.3 3.6 256.0 6220.8 26.8
wp6 2022-06-26 11:00:02.0 39.3 1027.9 1203.2 409.6 26.9
wp7 2022-06-26 10:00:32.0 39.4 1513.9 5964.8 4480.0 26.8
wp36 2022-06-26 10:00:08.0 39.5 4790.6 6092.8 0.0 26.8
wp4 2022-06-26 10:00:07.0 39.3 6173.4 921.6 128.0 26.7
wp6 2022-06-26 10:00:02.0 39.3 5354.3 1612.8 409.6 26.8
wp7 2022-06-26 09:00:12.0 39.4 80.4 5299.2 4992.0 26.7
wp36 2022-06-26 09:00:08.0 39.5 1155.4 5427.2 6016.0 26.7
wp4 2022-06-26 09:00:07.0 39.2 4125.5 6528.0 409.6 26.6
wp6 2022-06-26 09:00:02.0 39.3 951.1 819.2 409.6 26.7
wp4 2022-06-26 08:00:27.0 39.2 1181.5 5708.8 409.6 26.6
wp7 2022-06-26 08:00:12.0 39.4 720.4 4326.4 3916.8 26.6
wp36 2022-06-26 08:00:08.0 39.5 3280.2 4505.6 5862.4 26.6
wp6 2022-06-26 08:00:02.0 39.2 1847.1 6476.8 409.6 26.6
wp7 2022-06-26 07:00:12.0 39.4 131.6 2483.2 3174.4 26.6
wp36 2022-06-26 07:00:08.0 39.5 899.4 2688.0 6067.2 26.6
wp4 2022-06-26 07:00:07.0 39.2 6327.1 3788.8 409.6 26.5
wp6 2022-06-26 07:00:02.0 39.2 106.3 4531.2 409.6 26.6
wp7 2022-06-26 06:00:32.0 39.4 5686.8 1075.2 2944.0 26.5
wp36 2022-06-26 06:00:08.0 39.5 541.0 1203.2 6169.6 26.6
wp4 2022-06-26 06:00:07.0 39.2 5149.5 2278.4 409.6 26.5
wp6 2022-06-26 06:00:03.0 39.2 5072.7 3200.0 409.6 26.5
wp7 2022-06-26 05:00:12.0 39.4 4714.0 0.0 3046.4 26.5
wp4 2022-06-26 05:00:08.0 39.2 4381.5 1408.0 409.6 26.5
wp36 2022-06-26 05:00:08.0 39.5 848.2 256.0 5606.4 26.6
wp6 2022-06-26 05:00:03.0 39.2 4432.7 2252.8 409.6 26.5
wp7 2022-06-26 04:00:32.0 39.4 6147.6 435.2 2662.4 26.5
wp36 2022-06-26 04:00:08.0 39.5 259.4 563.2 6272.0 26.6
wp4 2022-06-26 04:00:07.0 39.2 4944.7 1715.2 409.6 26.5
wp6 2022-06-26 04:00:03.0 39.2 5277.5 2534.4 409.6 26.5
wp7 2022-06-26 03:00:52.0 39.3 6480.4 6092.8 1715.2 26.5
wp4 2022-06-26 03:00:08.0 39.2 5200.7 1024.0 409.6 26.5
wp36 2022-06-26 03:00:08.0 39.4 1309.0 6451.2 5196.8 26.6
wp6 2022-06-26 03:00:03.0 39.2 5687.1 1817.6 409.6 26.5
wp7 2022-06-26 02:00:12.0 39.4 2358.7 1075.2 6297.6 26.6
wp36 2022-06-26 02:00:08.0 39.5 2793.8 1331.2 4300.8 26.6
wp4 2022-06-26 02:00:07.0 39.2 899.8 2457.6 5529.6 26.6
wp6 2022-06-26 02:00:03.0 39.2 234.3 3302.4 409.6 26.6
wp7 2022-06-26 01:01:12.0 39.4 2512.3 2508.8 5529.6 26.6
wp36 2022-06-26 01:00:08.0 39.5 2563.4 2636.8 4198.4 26.6
wp4 2022-06-26 01:00:07.0 39.2 157.5 3712.0 0.0 26.6
wp6 2022-06-26 01:00:03.0 39.2 234.3 4582.4 409.6 26.6
wp7 2022-06-26 00:00:12.0 39.4 899.6 3020.8 128.0 26.6
wp36 2022-06-26 00:00:08.0 39.5 745.8 3328.0 5708.8 26.6
wp4 2022-06-26 00:00:07.0 39.2 5943.0 4352.0 6169.6 26.5
wp6 2022-06-26 00:00:04.0 39.2 5379.9 5248.0 409.6 26.5
wp7 2022-06-25 23:00:32.0 39.4 5917.2 2124.8 2278.4 26.5
wp36 2022-06-25 23:00:08.0 39.5 6377.9 2432.0 358.4 26.5
wp4 2022-06-25 23:00:07.0 39.2 4842.2 3481.6 2867.2 26.5
wp6 2022-06-25 23:00:04.0 39.2 4688.7 4275.2 409.6 26.5
wp7 2022-06-25 22:00:32.0 39.4 3510.8 998.4 2124.8 26.6
wp36 2022-06-25 22:00:08.0 39.5 5072.2 1280.0 6220.8 26.6
wp4 2022-06-25 22:00:07.0 39.2 2742.9 2432.0 665.6 26.6
wp6 2022-06-25 22:00:04.0 39.2 2359.1 3200.0 409.6 26.6
wp7 2022-06-25 21:00:32.0 39.4 5072.4 947.2 844.8 26.6
wp36 2022-06-25 21:00:08.0 39.5 5789.0 1049.6 6374.4 26.6
wp4 2022-06-25 21:00:07.0 39.2 3434.0 2278.4 3865.6 26.6
wp6 2022-06-25 21:00:04.0 39.2 2563.9 3148.8 409.6 26.6
wp7 2022-06-25 20:00:32.0 39.3 5609.9 5427.2 5836.8 26.6
wp36 2022-06-25 20:00:08.0 39.4 6480.2 5657.6 5888.0 26.6
wp4 2022-06-25 20:00:07.0 39.2 4074.0 204.8 409.6 26.6
wp6 2022-06-25 20:00:04.0 39.2 2461.5 1049.6 409.6 26.6
wp7 2022-06-25 19:01:11.0 39.3 5046.7 1689.6 4352.0 26.6
wp36 2022-06-25 19:00:08.0 39.4 1232.2 1868.8 4838.4 26.7
wp4 2022-06-25 19:00:07.0 39.1 4355.5 3020.8 3686.4 26.6
wp6 2022-06-25 19:00:05.0 39.1 2589.5 3763.2 409.6 26.6
wp4 2022-06-25 18:00:27.0 39.1 2819.4 460.8 5145.6 26.7
wp7 2022-06-25 18:00:11.0 39.2 3433.8 5555.2 5811.2 26.7
wp36 2022-06-25 18:00:08.0 39.3 5481.8 5913.6 3993.6 26.7
wp6 2022-06-25 18:00:05.0 39.1 6071.0 1254.4 1177.6 26.7
wp7 2022-06-25 17:00:11.0 39.2 2051.3 5350.4 3737.6 27.0
wp36 2022-06-25 17:00:08.0 39.3 3971.4 5683.2 2662.4 26.8
wp4 2022-06-25 17:00:07.0 39.1 5968.1 128.0 1689.6 26.8
wp6 2022-06-25 17:00:05.0 39.1 4278.9 1075.2 3814.4 26.9
wp7 2022-06-25 16:00:11.0 39.2 4124.8 5171.2 5862.4 27.0
wp36 2022-06-25 16:00:08.0 39.3 6505.8 5708.8 3609.6 26.8
wp4 2022-06-25 16:00:07.0 39.1 4073.7 153.6 1945.6 26.9
wp6 2022-06-25 16:00:05.0 39.1 1155.9 1075.2 409.6 26.9
wp7 2022-06-25 15:00:11.0 39.2 1871.8 6092.8 6476.8 27.2
wp36 2022-06-25 15:00:08.0 39.3 4918.5 6476.8 5939.2 27.0
wp4 2022-06-25 15:00:07.0 39.1 4918.5 1177.6 3200.0 26.9
wp6 2022-06-25 15:00:05.0 39.1 2794.1 1817.6 1356.8 27.0
wp7 2022-06-25 14:00:11.0 39.3 6377.6 2124.8 3712.0 27.2
wp36 2022-06-25 14:00:08.0 39.4 873.5 2380.8 4556.8 27.2
wp4 2022-06-25 14:00:07.0 39.1 2230.5 3276.8 5043.2 27.0
wp6 2022-06-25 14:00:06.0 39.1 1463.0 4531.2 5324.8 27.2
wp4 2022-06-25 13:00:27.0 39.2 2665.8 204.8 4710.4 27.1
wp7 2022-06-25 13:00:11.0 39.3 6275.3 5299.2 5555.2 27.1
wp36 2022-06-25 13:00:08.0 39.4 1641.8 5657.6 1920.0 27.0
wp6 2022-06-25 13:00:06.0 39.2 5456.6 972.8 640.0 27.0
wp7 2022-06-25 12:00:31.0 39.4 6198.7 1228.8 5068.8 27.0
wp4 2022-06-25 12:00:27.0 39.2 1770.0 2380.8 1305.6 27.0
wp36 2022-06-25 12:00:08.0 39.5 4765.1 1254.4 4224.0 26.9
wp6 2022-06-25 12:00:06.0 39.2 3511.1 3225.6 409.6 26.9
wp36 2022-06-25 11:00:48.0 39.5 2461.0 3456.0 5760.0 26.9
wp7 2022-06-25 11:00:11.0 39.4 2512.2 3328.0 5273.6 27.0
wp4 2022-06-25 11:00:07.0 39.2 1104.3 4659.2 4940.8 27.0
wp6 2022-06-25 11:00:06.0 39.2 5098.2 5427.2 6041.6 26.9
wp7 2022-06-25 10:00:31.0 39.4 4304.4 4300.8 2432.0 26.9
wp36 2022-06-25 10:00:08.0 39.5 3894.6 4121.6 1792.0 26.8
wp4 2022-06-25 10:00:07.0 39.2 848.4 5324.8 1203.2 26.9
wp6 2022-06-25 10:00:06.0 39.2 3383.1 5964.8 409.6 26.8
wp7 2022-06-25 09:00:31.0 39.4 2742.8 3532.8 1740.8 26.7
wp36 2022-06-25 09:00:08.0 39.5 2307.5 3686.4 486.4 26.7
wp4 2022-06-25 09:00:07.0 39.2 5610.2 4966.4 6169.6 26.7
wp6 2022-06-25 09:00:07.0 39.2 4995.9 5734.4 409.6 26.8
wp7 2022-06-25 08:00:31.0 39.4 4970.1 2380.8 921.6 26.5
wp36 2022-06-25 08:00:08.0 39.5 5507.5 2483.2 3788.8 26.5
wp4 2022-06-25 08:00:07.0 39.2 5354.3 3481.6 409.6 26.5
wp6 2022-06-25 08:00:07.0 39.2 5712.7 4377.6 409.6 26.5
wp7 2022-06-25 07:00:31.0 39.3 3075.6 6528.0 5094.4 26.5
wp4 2022-06-25 07:00:27.0 39.2 5123.9 1382.4 409.6 26.5
wp36 2022-06-25 07:00:08.0 39.5 259.4 204.8 5529.6 26.6
wp6 2022-06-25 07:00:07.0 39.2 5533.5 2150.4 409.6 26.5
wp7 2022-06-25 06:00:11.0 39.3 4406.8 5171.2 2329.6 26.5
wp36 2022-06-25 06:00:08.0 39.4 259.4 5299.2 5452.8 26.6
wp4 2022-06-25 06:00:07.0 39.1 4355.9 6502.4 409.6 26.5
wp6 2022-06-25 06:00:07.0 39.2 4586.3 716.8 409.6 26.5
wp7 2022-06-25 05:00:31.0 39.3 4816.4 5708.8 2022.4 26.5
wp36 2022-06-25 05:00:08.0 39.4 5149.1 5913.6 486.4 26.5
wp4 2022-06-25 05:00:07.0 39.2 4381.5 512.0 409.6 26.5
wp6 2022-06-25 05:00:07.0 39.2 3152.7 1228.8 409.6 26.5
wp7 2022-06-25 04:00:31.0 39.3 4253.2 6297.6 3430.4 26.5
wp6 2022-06-25 04:00:08.0 39.2 4560.7 1920.0 409.6 26.5
wp36 2022-06-25 04:00:08.0 39.5 5481.9 0.0 384.0 26.5
wp4 2022-06-25 04:00:07.0 39.2 4304.7 1203.2 409.6 26.5
wp7 2022-06-25 03:00:31.0 39.3 5354.0 6169.6 1433.6 26.5
wp6 2022-06-25 03:00:08.0 39.2 3792.7 1689.6 409.6 26.5
wp36 2022-06-25 03:00:08.0 39.4 6198.7 6297.6 640.0 26.5
wp4 2022-06-25 03:00:07.0 39.2 3895.1 1024.0 409.6 26.5
wp7 2022-06-25 02:00:31.0 39.3 925.2 6297.6 332.8 26.6
wp6 2022-06-25 02:00:08.0 39.2 6045.5 1766.4 409.6 26.5
wp36 2022-06-25 02:00:08.0 39.4 4099.4 6528.0 4428.8 26.6
wp4 2022-06-25 02:00:07.0 39.2 5431.1 972.8 409.6 26.5
wp7 2022-06-25 01:00:31.0 39.4 2307.5 691.2 4889.6 26.6
wp6 2022-06-25 01:00:08.0 39.2 6147.9 2892.8 409.6 26.5
wp36 2022-06-25 01:00:08.0 39.5 4048.2 972.8 4889.6 26.6
wp4 2022-06-25 01:00:07.0 39.2 5763.9 2073.6 409.6 26.5
wp7 2022-06-25 00:00:30.0 39.4 1641.9 2816.0 5760.0 26.6
wp6 2022-06-25 00:00:09.0 39.2 387.9 4889.6 409.6 26.6
wp36 2022-06-25 00:00:08.0 39.5 3305.8 3072.0 6092.8 26.6
wp4 2022-06-25 00:00:07.0 39.2 5815.1 3916.8 409.6 26.5
wp7 2022-06-24 23:00:30.0 39.4 464.3 2816.0 6016.0 26.6
wp6 2022-06-24 23:00:09.0 39.2 5712.7 4915.2 409.6 26.5
wp36 2022-06-24 23:00:08.0 39.5 1897.8 2944.0 6425.6 26.6
wp4 2022-06-24 23:00:07.0 39.2 5200.6 4147.2 4710.4 26.5
wp7 2022-06-24 22:00:10.0 39.4 3152.3 3532.8 4249.6 26.6
wp6 2022-06-24 22:00:09.0 39.2 1411.9 5632.0 409.6 26.6
wp36 2022-06-24 22:00:08.0 39.5 5046.6 3814.4 4940.8 26.6
wp4 2022-06-24 22:00:07.0 39.2 618.2 4838.4 2739.2 26.6
wp7 2022-06-24 21:01:10.0 39.4 3024.3 2227.2 4300.8 26.6
wp6 2022-06-24 21:00:09.0 39.2 1923.9 4352.0 409.6 26.6
wp36 2022-06-24 21:00:09.0 39.5 5712.2 2483.2 5478.4 26.6
wp4 2022-06-24 21:00:07.0 39.2 1130.2 3200.0 332.8 26.6
wp7 2022-06-24 20:00:10.0 39.4 2896.3 409.6 3584.0 26.6
wp6 2022-06-24 20:00:09.0 39.2 2282.3 2713.6 409.6 26.6
wp36 2022-06-24 20:00:08.0 39.5 6352.2 819.2 5452.8 26.6
wp4 2022-06-24 20:00:07.0 39.2 1898.1 1740.8 1792.0 26.6
wp7 2022-06-24 19:00:10.0 39.3 3817.9 5222.4 2150.4 26.6
wp6 2022-06-24 19:00:09.0 39.2 2615.1 870.4 409.6 26.6
wp36 2022-06-24 19:00:08.0 39.4 1129.8 5632.0 4966.4 26.7
wp4 2022-06-24 19:00:07.0 39.1 3280.4 6476.8 1971.2 26.6
wp6 2022-06-24 18:00:10.0 39.1 3383.1 5376.0 409.6 26.6
wp7 2022-06-24 18:00:10.0 39.3 5737.8 3123.2 5504.0 26.6
wp36 2022-06-24 18:00:09.0 39.4 1411.5 3584.0 512.0 26.7
wp4 2022-06-24 18:00:07.0 39.1 5558.7 4608.0 2278.4 26.6
wp4 2022-06-24 17:00:27.0 39.1 5763.3 2790.4 6425.6 26.7
wp6 2022-06-24 17:00:10.0 39.1 1104.7 3481.6 409.6 26.7
wp7 2022-06-24 17:00:10.0 39.3 4253.0 1331.2 332.8 26.7
wp36 2022-06-24 17:00:09.0 39.4 1206.6 1612.8 5120.0 26.8
wp6 2022-06-24 16:00:10.0 39.1 5482.3 3174.4 409.6 26.7
wp7 2022-06-24 16:00:10.0 39.3 2947.3 1100.8 3532.8 26.8
wp36 2022-06-24 16:00:09.0 39.4 6147.4 1331.2 4403.2 26.8
wp4 2022-06-24 16:00:07.0 39.1 3996.9 2483.2 1433.6 26.8
wp6 2022-06-24 15:00:10.0 39.1 5482.1 3430.4 4633.6 26.9
wp7 2022-06-24 15:00:10.0 39.3 6172.9 1408.0 409.6 26.8
wp36 2022-06-24 15:00:09.0 39.4 3101.0 1638.4 4684.8 26.9
wp4 2022-06-24 15:00:07.0 39.1 566.4 2560.0 3072.0 26.9
wp6 2022-06-24 14:00:10.0 39.1 464.7 5273.6 409.6 27.1
wp7 2022-06-24 14:00:10.0 39.3 1411.2 2764.8 998.4 27.0
wp36 2022-06-24 14:00:09.0 39.4 4048.2 3225.6 6246.4 26.9
wp4 2022-06-24 14:00:07.0 39.1 3203.1 4172.8 3379.2 26.9
wp7 2022-06-24 13:00:30.0 39.3 6019.2 4710.4 4889.6 26.9
wp6 2022-06-24 13:00:11.0 39.2 618.3 614.4 409.6 27.1
wp36 2022-06-24 13:00:09.0 39.4 5507.4 4915.2 4121.6 26.9
wp4 2022-06-24 13:00:07.0 39.1 2127.9 6041.6 3609.6 26.9
wp7 2022-06-24 12:00:30.0 39.4 6505.7 358.4 3660.8 26.9
wp6 2022-06-24 12:00:11.0 39.2 4791.1 2457.6 409.6 26.9
wp36 2022-06-24 12:00:09.0 39.5 1053.0 512.0 4736.0 26.9
wp4 2022-06-24 12:00:07.0 39.2 6352.0 1638.4 1203.2 26.9
wp6 2022-06-24 11:00:11.0 39.2 899.8 3968.0 179.2 26.8
wp7 2022-06-24 11:00:10.0 39.4 4662.7 1894.4 4761.6 26.7
wp36 2022-06-24 11:00:09.0 39.5 1974.7 2150.4 1100.8 26.8
wp4 2022-06-24 11:00:07.0 39.2 1386.0 3379.2 3020.8 26.8
wp6 2022-06-24 10:00:11.0 39.2 976.7 5299.2 51.2 26.7
wp7 2022-06-24 10:00:10.0 39.4 1181.1 3276.8 6528.0 26.7
wp36 2022-06-24 10:00:09.0 39.5 105.9 3507.2 1024.0 26.8
wp4 2022-06-24 10:00:07.0 39.2 5738.3 4761.6 409.6 26.6
wp6 2022-06-24 09:00:11.0 39.2 5994.3 4300.8 409.6 26.6
wp7 2022-06-24 09:00:10.0 39.4 2973.2 2201.6 1894.4 26.6
wp36 2022-06-24 09:00:09.0 39.5 2461.1 2355.2 2739.2 26.7
wp4 2022-06-24 09:00:07.0 39.2 2307.9 3481.6 409.6 26.6
wp7 2022-06-24 08:00:50.0 39.3 29.2 6041.6 2944.0 26.6
wp6 2022-06-24 08:00:12.0 39.2 5917.5 1459.2 409.6 26.5
wp36 2022-06-24 08:00:09.0 39.4 797.1 6272.0 2432.0 26.7
wp4 2022-06-24 08:00:07.0 39.2 6071.1 1024.0 409.6 26.5
wp6 2022-06-24 07:00:12.0 39.2 2743.1 153.6 409.6 26.5
wp7 2022-06-24 07:00:10.0 39.3 2845.2 4684.8 4249.6 26.5
wp36 2022-06-24 07:00:09.0 39.4 6045.1 4940.8 5734.4 26.5
wp4 2022-06-24 07:00:07.0 39.1 3434.3 6425.6 409.6 26.5
wp6 2022-06-24 06:00:12.0 39.1 1667.9 5990.4 409.6 26.5
wp7 2022-06-24 06:00:10.0 39.3 2307.6 3968.0 3456.0 26.5
wp36 2022-06-24 06:00:09.0 39.4 5353.9 4224.0 4454.4 26.5
wp4 2022-06-24 06:00:07.0 39.1 2205.5 5504.0 409.6 26.5
wp6 2022-06-24 05:00:12.0 39.1 1616.7 4633.6 409.6 26.5
wp7 2022-06-24 05:00:10.0 39.3 3843.6 2585.6 128.0 26.5
wp36 2022-06-24 05:00:09.0 39.4 4432.3 2790.4 3302.4 26.5
wp4 2022-06-24 05:00:07.0 39.1 1923.9 4249.6 409.6 26.5
wp6 2022-06-24 04:00:13.0 39.1 2051.9 5043.2 409.6 26.5
wp36 2022-06-24 04:00:09.0 39.4 5097.9 3276.8 691.2 26.5
wp7 2022-06-24 04:00:09.0 39.3 4509.1 2944.0 5120.0 26.5
wp4 2022-06-24 04:00:07.0 39.1 1591.1 4249.6 409.6 26.5
wp6 2022-06-24 03:00:13.0 39.1 1847.1 5299.2 409.6 26.5
wp36 2022-06-24 03:00:09.0 39.4 3459.5 3660.8 1766.4 26.5
wp7 2022-06-24 03:00:09.0 39.3 2589.1 3276.8 6476.8 26.5
wp4 2022-06-24 03:00:07.0 39.1 1539.9 4659.2 409.6 26.5
wp6 2022-06-24 02:00:13.0 39.2 2794.3 102.4 409.6 26.5
wp36 2022-06-24 02:00:09.0 39.4 3766.7 4838.4 742.4 26.5
wp7 2022-06-24 02:00:09.0 39.3 3792.3 4633.6 6476.8 26.5
wp4 2022-06-24 02:00:07.0 39.1 1667.9 5888.0 409.6 26.5
wp7 2022-06-24 01:01:29.0 39.3 3690.0 6220.8 563.2 26.5
wp6 2022-06-24 01:00:13.0 39.2 3024.7 1766.4 409.6 26.5
wp36 2022-06-24 01:00:09.0 39.4 3894.6 6528.0 5811.2 26.5
wp4 2022-06-24 01:00:07.0 39.2 1770.3 921.6 409.6 26.5
wp4 2022-06-24 00:00:27.0 39.2 1923.9 1331.2 409.6 26.5
wp6 2022-06-24 00:00:13.0 39.2 3050.3 2201.6 409.6 26.5
wp36 2022-06-24 00:00:09.0 39.5 4176.2 281.6 2892.8 26.5
wp7 2022-06-24 00:00:09.0 39.4 3945.9 0.0 6451.2 26.5
wp6 2022-06-23 23:00:14.0 39.2 6019.9 2508.8 409.6 26.5
wp36 2022-06-23 23:00:09.0 39.5 1129.8 665.6 435.2 26.6
wp7 2022-06-23 23:00:09.0 39.4 694.7 460.8 3584.0 26.6
wp4 2022-06-23 23:00:07.0 39.2 5123.9 1612.8 409.6 26.5
wp6 2022-06-23 22:00:14.0 39.2 1283.9 1408.0 409.6 26.6
wp36 2022-06-23 22:00:09.0 39.4 2640.2 6195.2 3609.6 26.6
wp7 2022-06-23 22:00:09.0 39.3 1616.4 5888.0 460.8 26.6
wp4 2022-06-23 22:00:07.0 39.2 6403.9 537.6 409.6 26.5
wp7 2022-06-23 21:00:29.0 39.3 1514.0 3840.0 716.8 26.6
wp6 2022-06-23 21:00:14.0 39.1 1667.9 5964.8 409.6 26.6
wp36 2022-06-23 21:00:09.0 39.4 3971.4 3942.4 1664.0 26.6
wp4 2022-06-23 21:00:07.0 39.1 490.2 5427.2 5222.4 26.6
wp7 2022-06-23 20:00:29.0 39.3 2589.2 3123.2 742.4 26.6
wp6 2022-06-23 20:00:14.0 39.1 2871.1 5145.6 409.6 26.6
wp36 2022-06-23 20:00:09.0 39.4 4739.4 3302.4 1945.6 26.6
wp4 2022-06-23 20:00:07.0 39.1 1335.0 4403.2 1305.6 26.6
wp7 2022-06-23 19:00:29.0 39.2 4304.4 6348.8 128.0 26.6
wp6 2022-06-23 19:00:14.0 39.1 4099.9 2022.4 409.6 26.6
wp36 2022-06-23 19:00:09.0 39.4 4381.0 25.6 3712.0 26.6
wp4 2022-06-23 19:00:07.0 39.1 2205.3 793.6 4889.6 26.6
wp4 2022-06-23 18:00:27.0 39.0 4202.0 5606.4 5376.0 26.6
wp6 2022-06-23 18:00:15.0 39.0 6301.5 6502.4 409.6 26.6
wp36 2022-06-23 18:00:09.0 39.3 438.6 4531.2 3328.0 26.7
wp7 2022-06-23 18:00:09.0 39.2 54.7 4352.0 5785.6 26.7
wp6 2022-06-23 17:00:15.0 39.0 6071.1 5248.0 409.6 26.7
wp36 2022-06-23 17:00:09.0 39.3 2051.4 3097.6 3251.2 26.7
wp7 2022-06-23 17:00:09.0 39.2 285.1 2892.8 1945.6 26.8
wp4 2022-06-23 17:00:07.0 39.0 285.1 4070.4 5145.6 26.7
wp6 2022-06-23 16:00:15.0 39.0 1616.7 4172.8 409.6 26.9
wp36 2022-06-23 16:00:09.0 39.3 6249.8 2073.6 2252.8 26.7
wp7 2022-06-23 16:00:09.0 39.2 5558.7 1996.8 537.6 26.8
wp4 2022-06-23 16:00:07.0 39.0 3792.2 3276.8 1996.8 26.7
wp7 2022-06-23 15:00:29.0 39.2 2973.1 2099.2 5376.0 26.8
wp6 2022-06-23 15:00:15.0 39.0 311.1 4198.4 409.6 26.9
wp36 2022-06-23 15:00:09.0 39.3 2819.4 2022.4 2739.2 26.8
wp4 2022-06-23 15:00:07.0 39.0 6249.8 3328.0 435.2 26.7
wp7 2022-06-23 14:00:29.0 39.2 1565.1 3660.8 1638.4 26.9
wp6 2022-06-23 14:00:15.0 39.0 2384.7 5964.8 409.6 27.0
wp36 2022-06-23 14:00:09.0 39.3 3382.6 3788.8 1945.6 26.9
wp4 2022-06-23 14:00:07.0 39.0 182.5 5145.6 4582.4 26.9
wp6 2022-06-23 13:00:16.0 39.1 6531.9 2022.4 409.6 27.0
wp36 2022-06-23 13:00:09.0 39.3 6096.1 6348.8 2099.2 27.0
wp7 2022-06-23 13:00:09.0 39.2 1923.4 6144.0 2457.6 27.0
wp4 2022-06-23 13:00:07.0 39.1 1437.1 1331.2 3148.8 27.0
wp4 2022-06-23 12:00:47.0 39.1 1155.8 3712.0 179.2 26.9
wp7 2022-06-23 12:00:29.0 39.3 3741.1 2406.4 1331.2 27.0
wp6 2022-06-23 12:00:16.0 39.1 6199.1 4352.0 409.6 26.9
wp36 2022-06-23 12:00:09.0 39.4 5609.7 2124.8 6016.0 26.9
wp7 2022-06-23 11:00:29.0 39.3 1897.9 3584.0 6348.8 26.8
wp6 2022-06-23 11:00:16.0 39.1 1821.5 5734.4 409.6 26.9
wp36 2022-06-23 11:00:09.0 39.4 3101.0 3712.0 1612.8 26.9
wp4 2022-06-23 11:00:07.0 39.1 1027.7 5273.6 6246.4 26.9
wp6 2022-06-23 10:00:16.0 39.2 5379.9 51.2 409.6 26.9
wp36 2022-06-23 10:00:09.0 39.4 1513.8 4480.0 1433.6 26.9
wp7 2022-06-23 10:00:09.0 39.3 5507.6 4556.8 2816.0 26.8
wp4 2022-06-23 10:00:07.0 39.1 5175.1 6067.2 409.6 26.8
wp7 2022-06-23 09:00:29.0 39.3 5302.8 2662.4 4326.4 26.6
wp6 2022-06-23 09:00:16.0 39.1 1360.7 4710.4 409.6 26.7
wp36 2022-06-23 09:00:09.0 39.4 5763.4 2841.6 4019.2 26.7
wp4 2022-06-23 09:00:07.0 39.1 4586.3 4070.4 409.6 26.6
wp7 2022-06-23 08:00:28.0 39.3 1565.2 2304.0 3635.2 26.6
wp6 2022-06-23 08:00:17.0 39.1 4023.1 4454.4 409.6 26.6
wp36 2022-06-23 08:00:09.0 39.4 5507.4 2355.2 4915.2 26.6
wp4 2022-06-23 08:00:07.0 39.1 1872.7 3865.6 409.6 26.6
wp6 2022-06-23 07:00:17.0 39.1 387.9 2790.4 409.6 26.6
wp36 2022-06-23 07:00:09.0 39.4 3408.2 844.8 4300.8 26.6
wp7 2022-06-23 07:00:08.0 39.3 3.6 716.8 2841.6 26.6
wp4 2022-06-23 07:00:07.0 39.1 5866.3 2304.0 409.6 26.5
wp6 2022-06-23 06:00:17.0 39.1 157.5 1945.6 409.6 26.6
wp36 2022-06-23 06:00:09.0 39.4 2614.6 25.6 4172.8 26.6
wp7 2022-06-23 06:00:08.0 39.2 541.2 6502.4 1049.6 26.6
wp4 2022-06-23 06:00:07.0 39.1 5200.7 1433.6 409.6 26.5
wp6 2022-06-23 05:00:17.0 39.1 106.3 486.4 409.6 26.6
wp36 2022-06-23 05:00:09.0 39.3 2077.0 5017.6 3942.4 26.6
wp7 2022-06-23 05:00:08.0 39.2 80.4 5017.6 1305.6 26.6
wp4 2022-06-23 05:00:07.0 39.0 5072.7 6451.2 409.6 26.5
wp6 2022-06-23 04:00:17.0 39.1 6403.9 896.0 409.6 26.5
wp36 2022-06-23 04:00:09.0 39.3 2486.6 5632.0 4582.4 26.6
wp7 2022-06-23 04:00:08.0 39.2 336.4 5529.6 1459.2 26.6
wp4 2022-06-23 04:00:07.0 39.1 5507.9 460.8 409.6 26.5
wp4 2022-06-23 03:00:27.0 39.1 6019.9 1536.0 409.6 26.5
wp6 2022-06-23 03:00:18.0 39.1 234.3 1817.6 409.6 26.6
wp36 2022-06-23 03:00:09.0 39.3 3689.8 6476.8 3763.2 26.6
wp7 2022-06-23 03:00:08.0 39.2 1130.0 6297.6 153.6 26.6
wp6 2022-06-23 02:00:18.0 39.1 5968.7 1459.2 409.6 26.5
wp36 2022-06-23 02:00:09.0 39.3 2486.6 6374.4 4224.0 26.6
wp7 2022-06-23 02:00:08.0 39.2 310.8 5990.4 153.6 26.6
wp4 2022-06-23 02:00:07.0 39.1 5559.1 1228.8 409.6 26.5
wp6 2022-06-23 01:00:18.0 39.1 5610.3 4275.2 409.6 26.5
wp36 2022-06-23 01:00:09.0 39.4 2537.8 2355.2 4531.2 26.6
wp7 2022-06-23 01:00:08.0 39.3 6403.6 2201.6 896.0 26.5
wp4 2022-06-23 01:00:07.0 39.1 5456.7 3891.2 409.6 26.5
wp6 2022-06-23 00:00:18.0 39.1 131.9 5401.6 409.6 26.6
wp36 2022-06-23 00:00:09.0 39.4 3331.4 3609.6 3481.6 26.6
wp7 2022-06-23 00:00:08.0 39.3 1027.5 3148.8 5324.8 26.6
wp4 2022-06-23 00:00:07.0 39.1 5968.7 5120.0 409.6 26.5
wp4 2022-06-22 23:00:27.0 39.1 6531.9 6041.6 409.6 26.5
wp6 2022-06-22 23:00:18.0 39.2 1667.9 179.2 409.6 26.6
wp36 2022-06-22 23:00:09.0 39.4 5661.0 4812.8 2534.4 26.6
wp7 2022-06-22 23:00:08.0 39.3 4125.1 4531.2 3404.8 26.6
wp6 2022-06-22 22:00:19.0 39.1 106.3 5273.6 409.6 26.6
wp36 2022-06-22 22:00:09.0 39.4 3894.6 3507.2 3814.4 26.6
wp7 2022-06-22 22:00:08.0 39.3 2230.7 3225.6 4044.8 26.6
wp4 2022-06-22 22:00:07.0 39.1 6250.3 4736.0 409.6 26.5
wp7 2022-06-22 21:00:28.0 39.3 5917.1 1408.0 3865.6 26.5
wp6 2022-06-22 21:00:19.0 39.1 4765.5 3507.2 409.6 26.5
wp36 2022-06-22 21:00:09.0 39.4 29.0 1792.0 5760.0 26.6
wp4 2022-06-22 21:00:07.0 39.1 6378.3 3097.6 409.6 26.5
wp7 2022-06-22 20:00:28.0 39.3 2563.5 307.2 1254.4 26.6
wp6 2022-06-22 20:00:19.0 39.1 2333.5 2508.8 409.6 26.6
wp36 2022-06-22 20:00:09.0 39.4 4406.6 742.4 4019.2 26.6
wp4 2022-06-22 20:00:07.0 39.1 797.5 1843.2 409.6 26.6
wp4 2022-06-22 19:00:27.0 39.1 1667.9 614.4 409.6 26.6
wp6 2022-06-22 19:00:19.0 39.1 3613.5 1126.4 409.6 26.6
wp36 2022-06-22 19:00:09.0 39.3 4611.4 5964.8 4556.8 26.6
wp7 2022-06-22 19:00:08.0 39.2 3997.0 5452.8 4966.4 26.6
wp7 2022-06-22 18:00:28.0 39.2 1104.2 2816.0 307.2 26.7
wp6 2022-06-22 18:00:19.0 39.0 2026.3 5068.8 409.6 26.7
wp36 2022-06-22 18:00:09.0 39.3 5942.6 3302.4 4838.4 26.6
wp4 2022-06-22 18:00:07.0 39.0 3818.2 4531.2 2944.0 26.6
wp7 2022-06-22 17:01:08.0 39.2 1820.9 1356.8 768.0 26.8
wp36 2022-06-22 17:00:09.0 39.3 822.6 1689.6 5913.6 26.7
wp4 2022-06-22 17:00:07.0 39.0 5968.5 3200.0 2073.6 26.6
wp6 2022-06-22 17:00:00.0 39.0 6147.8 3532.8 5427.2 26.8
wp36 2022-06-22 16:00:09.0 39.3 4867.4 1100.8 4838.4 26.7
wp7 2022-06-22 16:00:08.0 39.2 2281.6 870.4 6451.2 26.8
wp4 2022-06-22 16:00:07.0 39.0 3101.2 2969.6 2508.8 26.7
wp6 2022-06-22 16:00:00.0 39.0 310.9 3200.0 5094.4 27.0
wp7 2022-06-22 15:00:28.0 39.2 1897.3 2099.2 4710.4 27.1
wp4 2022-06-22 15:00:27.0 39.0 4893.2 4377.6 1433.6 26.8
wp36 2022-06-22 15:00:09.0 39.3 4432.1 2739.2 5427.2 26.9
wp6 2022-06-22 15:00:00.0 39.0 5661.3 4864.0 2201.6 27.2
wp36 2022-06-22 14:00:09.0 39.3 6019.4 4428.8 2355.2 26.9
wp7 2022-06-22 14:00:08.0 39.2 3305.6 4070.4 1331.2 27.0
wp4 2022-06-22 14:00:07.0 39.0 1616.4 6220.8 2764.8 26.9
wp6 2022-06-22 14:00:00.0 39.1 2128.7 76.8 409.6 27.2
wp7 2022-06-22 13:00:28.0 39.2 2691.0 5760.0 5734.4 27.1
wp36 2022-06-22 13:00:09.0 39.3 4457.8 5990.4 665.6 26.9
wp4 2022-06-22 13:00:07.0 39.1 464.7 1536.0 409.6 27.0
wp6 2022-06-22 13:00:00.0 39.1 4637.5 1920.0 409.6 27.3
wp36 2022-06-22 12:00:09.0 39.4 4611.3 1766.4 844.8 27.1
wp7 2022-06-22 12:00:08.0 39.3 1052.8 1228.8 1587.2 27.0
wp4 2022-06-22 12:00:06.0 39.1 5610.3 3686.4 179.2 26.9
wp6 2022-06-22 12:00:01.0 39.1 2000.4 3968.0 5248.0 27.3
wp36 2022-06-22 11:00:09.0 39.4 720.2 3993.6 2534.4 27.0
wp4 2022-06-22 11:00:07.0 39.1 3613.5 5734.4 409.6 26.8
wp7 2022-06-22 11:00:07.0 39.3 4688.1 3660.8 6374.4 26.9
wp6 2022-06-22 11:00:01.0 39.1 5968.7 5964.8 409.6 26.8
wp36 2022-06-22 10:00:09.0 39.4 873.8 5504.0 4838.4 26.8
wp4 2022-06-22 10:00:07.0 39.2 1411.9 742.4 409.6 26.7
wp7 2022-06-22 10:00:07.0 39.3 848.3 5427.2 998.4 26.8
wp6 2022-06-22 10:00:01.0 39.2 1693.5 1100.8 409.6 26.8
wp36 2022-06-22 09:00:09.0 39.4 233.9 5862.4 2764.8 26.7
wp4 2022-06-22 09:00:07.0 39.2 1463.1 768.0 409.6 26.6
wp7 2022-06-22 09:00:07.0 39.3 5891.6 5734.4 1152.0 26.6
wp6 2022-06-22 09:00:01.0 39.2 1258.3 1433.6 409.6 26.7
wp36 2022-06-22 08:00:49.0 39.4 5712.3 4454.4 3456.0 26.5
wp7 2022-06-22 08:00:07.0 39.3 5635.6 4300.8 2790.4 26.5
wp4 2022-06-22 08:00:06.0 39.1 3869.5 5760.0 409.6 26.5
wp6 2022-06-22 08:00:01.0 39.1 4637.5 6425.6 409.6 26.5
wp7 2022-06-22 07:00:27.0 39.3 1488.4 2790.4 4249.6 26.5
wp36 2022-06-22 07:00:09.0 39.4 1334.7 2816.0 3456.0 26.5
wp4 2022-06-22 07:00:06.0 39.1 1386.3 4480.0 409.6 26.5
wp6 2022-06-22 07:00:01.0 39.1 1207.1 4761.6 409.6 26.5
wp36 2022-06-22 06:00:29.0 39.4 1206.7 1280.0 2380.8 26.5
wp7 2022-06-22 06:00:27.0 39.3 413.2 1024.0 2688.0 26.5
wp4 2022-06-22 06:00:06.0 39.1 490.3 2944.0 409.6 26.5
wp6 2022-06-22 06:00:02.0 39.1 2307.9 3174.4 409.6 26.5
wp36 2022-06-22 05:00:09.0 39.4 2819.5 742.4 51.2 26.5
wp7 2022-06-22 05:00:07.0 39.3 669.2 563.2 2252.8 26.5
wp4 2022-06-22 05:00:06.0 39.1 695.1 2380.8 409.6 26.5
wp6 2022-06-22 05:00:02.0 39.1 2794.3 2611.2 409.6 26.5
wp7 2022-06-22 04:00:27.0 39.3 1488.4 1561.6 1536.0 26.5
wp36 2022-06-22 04:00:09.0 39.4 2896.2 1843.2 6400.0 26.5
wp4 2022-06-22 04:00:06.0 39.1 951.1 3404.8 409.6 26.5
wp6 2022-06-22 04:00:02.0 39.1 2896.7 3660.8 409.6 26.5
wp36 2022-06-22 03:00:09.0 39.4 3305.8 2688.0 4736.0 26.5
wp7 2022-06-22 03:00:07.0 39.3 2742.7 2457.6 6400.0 26.5
wp4 2022-06-22 03:00:06.0 39.1 925.5 4172.8 409.6 26.5
wp6 2022-06-22 03:00:02.0 39.1 2922.3 4454.4 409.6 26.5
wp36 2022-06-22 02:00:09.0 39.4 3741.0 4070.4 5145.6 26.5
wp7 2022-06-22 02:00:07.0 39.3 2922.0 3788.8 102.4 26.5
wp4 2022-06-22 02:00:06.0 39.1 1463.1 5504.0 409.6 26.5
wp6 2022-06-22 02:00:03.0 39.1 2819.9 5862.4 409.6 26.5
wp36 2022-06-22 01:00:09.0 39.4 5405.0 4992.0 4044.8 26.5
wp7 2022-06-22 01:00:07.0 39.3 3408.3 4736.0 6092.8 26.5
wp4 2022-06-22 01:00:06.0 39.1 2947.9 6502.4 409.6 26.5
wp6 2022-06-22 01:00:03.0 39.2 3127.1 358.4 409.6 26.5
wp36 2022-06-22 00:00:10.0 39.4 4201.8 5734.4 4556.8 26.5
wp7 2022-06-22 00:00:07.0 39.3 2742.8 5632.0 153.6 26.5
wp4 2022-06-22 00:00:06.0 39.2 2666.3 768.0 409.6 26.5
wp6 2022-06-22 00:00:03.0 39.2 2691.9 1177.6 409.6 26.5
wp36 2022-06-21 23:00:09.0 39.4 4304.2 5964.8 5555.2 26.5
wp7 2022-06-21 23:00:07.0 39.3 3357.2 5657.6 358.4 26.5
wp4 2022-06-21 23:00:06.0 39.2 3587.9 819.2 409.6 26.5
wp6 2022-06-21 23:00:03.0 39.2 3101.5 1177.6 409.6 26.5
wp36 2022-06-21 22:00:10.0 39.4 2896.2 5708.8 1868.8 26.6
wp7 2022-06-21 22:00:07.0 39.3 1641.9 5529.6 3891.2 26.6
wp4 2022-06-21 22:00:06.0 39.2 3.9 640.0 409.6 26.6
wp6 2022-06-21 22:00:03.0 39.2 1539.9 1049.6 409.6 26.6
wp36 2022-06-21 21:00:10.0 39.4 3766.6 5248.0 3865.6 26.6
wp7 2022-06-21 21:00:07.0 39.3 1078.8 4915.2 153.6 26.6
wp4 2022-06-21 21:00:06.0 39.2 80.7 179.2 409.6 26.6
wp6 2022-06-21 21:00:04.0 39.2 1437.5 614.4 409.6 26.6
wp4 2022-06-21 20:00:26.0 39.1 669.5 4608.0 409.6 26.6
wp36 2022-06-21 20:00:10.0 39.4 3664.2 2944.0 4531.2 26.6
wp7 2022-06-21 20:00:07.0 39.3 1821.1 2739.2 6118.4 26.6
wp6 2022-06-21 20:00:04.0 39.1 2384.7 4864.0 409.6 26.6
wp36 2022-06-21 19:00:10.0 39.4 5046.6 1996.8 4454.4 26.6
wp7 2022-06-21 19:00:07.0 39.3 3715.5 1792.0 5376.0 26.6
wp4 2022-06-21 19:00:06.0 39.1 1872.7 3302.4 409.6 26.6
wp6 2022-06-21 19:00:04.0 39.1 3562.3 3840.0 409.6 26.6
wp7 2022-06-21 18:00:27.0 39.2 6454.7 6425.6 4454.4 26.6
wp36 2022-06-21 18:00:10.0 39.3 5942.6 6528.0 4352.0 26.6
wp4 2022-06-21 18:00:06.0 39.1 3229.5 1587.2 409.6 26.6
wp6 2022-06-21 18:00:04.0 39.1 592.7 1945.6 409.6 26.7
wp7 2022-06-21 17:00:27.0 39.2 2000.3 5811.2 4224.0 26.7
wp36 2022-06-21 17:00:10.0 39.3 1104.2 5862.4 4556.8 26.7
wp4 2022-06-21 17:00:06.0 39.1 5303.1 1126.4 409.6 26.6
wp6 2022-06-21 17:00:04.0 39.1 4304.7 1356.8 409.6 26.7
wp7 2022-06-21 16:00:27.0 39.2 1769.9 6272.0 4659.2 26.7
wp36 2022-06-21 16:00:10.0 39.3 3254.6 6476.8 3660.8 26.7
wp4 2022-06-21 16:00:06.0 39.1 2205.5 1587.2 409.6 26.7
wp6 2022-06-21 16:00:05.0 39.1 1795.9 1868.8 409.6 26.7
wp4 2022-06-21 15:00:26.0 39.1 3715.9 1766.4 409.6 26.8
wp36 2022-06-21 15:00:10.0 39.3 1641.8 6528.0 4377.6 26.8
wp7 2022-06-21 15:00:06.0 39.2 1181.1 6246.4 3251.2 26.8
wp6 2022-06-21 15:00:05.0 39.1 3920.7 1868.8 409.6 26.8
wp7 2022-06-21 14:00:26.0 39.3 233.9 2150.4 3968.0 26.8
wp36 2022-06-21 14:00:10.0 39.4 105.8 2304.0 3686.4 26.8
wp4 2022-06-21 14:00:06.0 39.1 5482.3 4096.0 409.6 26.7
wp6 2022-06-21 14:00:05.0 39.1 183.1 4326.4 128.0 26.9
wp7 2022-06-21 13:01:46.0 39.3 1616.3 3788.8 6502.4 26.8
wp36 2022-06-21 13:00:30.0 39.4 2537.8 3916.8 3993.6 26.8
wp4 2022-06-21 13:00:06.0 39.1 5507.9 5708.8 409.6 26.7
wp6 2022-06-21 13:00:05.0 39.1 1744.7 6092.8 409.6 26.9
wp36 2022-06-21 12:01:10.0 39.4 3305.8 5632.0 4787.2 26.8
wp4 2022-06-21 12:00:06.0 39.2 4688.7 998.4 409.6 26.8
wp7 2022-06-21 12:00:06.0 39.3 4278.7 5555.2 3737.6 26.8
wp6 2022-06-21 12:00:05.0 39.2 4970.3 1254.4 409.6 26.9
wp36 2022-06-21 11:01:10.0 39.5 182.6 256.0 2585.6 26.9
wp7 2022-06-21 11:00:26.0 39.4 5277.1 179.2 1510.4 26.8
wp4 2022-06-21 11:00:06.0 39.2 3895.1 2099.2 409.6 26.8
wp6 2022-06-21 11:00:06.0 39.2 5738.3 2483.2 409.6 26.9
wp7 2022-06-21 10:00:26.0 39.4 2512.3 1305.6 4428.8 26.8
wp36 2022-06-21 10:00:10.0 39.5 4790.6 1356.8 2150.4 26.8
wp4 2022-06-21 10:00:06.0 39.2 1053.5 3251.2 409.6 26.8
wp6 2022-06-21 10:00:06.0 39.2 1053.5 3584.0 409.6 26.9
wp36 2022-06-21 09:00:30.0 39.5 5635.5 307.2 179.2 26.7
wp4 2022-06-21 09:00:06.0 39.2 1975.1 2201.6 409.6 26.7
wp6 2022-06-21 09:00:06.0 39.2 2819.9 2432.0 409.6 26.8
wp7 2022-06-21 09:00:06.0 39.4 5328.4 179.2 230.4 26.7
wp6 2022-06-21 08:00:26.0 39.2 3178.3 1843.2 409.6 26.7
wp7 2022-06-21 08:00:26.0 39.3 1718.8 6220.8 793.6 26.7
wp36 2022-06-21 08:00:10.0 39.4 5942.7 6348.8 870.4 26.6
wp4 2022-06-21 08:00:06.0 39.2 3971.9 1510.4 409.6 26.6
wp36 2022-06-21 07:01:10.0 39.4 950.7 4659.2 844.8 26.6
wp4 2022-06-21 07:00:06.0 39.1 592.7 6400.0 409.6 26.6
wp6 2022-06-21 07:00:06.0 39.2 2256.7 102.4 409.6 26.6
wp7 2022-06-21 07:00:06.0 39.3 3177.9 4531.2 6374.4 26.6
wp36 2022-06-21 06:00:10.0 39.4 2512.2 3430.4 3814.4 26.6
wp6 2022-06-21 06:00:07.0 39.1 6352.7 5350.4 409.6 26.5
wp4 2022-06-21 06:00:06.0 39.1 5687.1 5068.8 409.6 26.5
wp7 2022-06-21 06:00:06.0 39.3 1897.9 3302.4 5120.0 26.6
wp36 2022-06-21 05:00:10.0 39.4 3664.2 2611.2 3430.4 26.6
wp6 2022-06-21 05:00:07.0 39.1 1002.3 4582.4 409.6 26.6
wp4 2022-06-21 05:00:06.0 39.1 6096.7 4352.0 409.6 26.5
wp7 2022-06-21 05:00:06.0 39.3 2614.7 2508.8 4403.2 26.6
wp4 2022-06-21 04:00:46.0 39.1 5866.3 4915.2 409.6 26.5
wp7 2022-06-21 04:00:26.0 39.3 2051.5 3123.2 4889.6 26.6
wp36 2022-06-21 04:00:10.0 39.4 4253.0 3276.8 2892.8 26.6
wp6 2022-06-21 04:00:07.0 39.1 874.3 5171.2 409.6 26.6
wp36 2022-06-21 03:00:10.0 39.4 3280.2 3020.8 3891.2 26.6
wp6 2022-06-21 03:00:07.0 39.1 1155.9 4966.4 409.6 26.6
wp4 2022-06-21 03:00:06.0 39.1 5661.5 4659.2 409.6 26.5
wp7 2022-06-21 03:00:06.0 39.3 3126.7 2841.6 4147.2 26.6
wp36 2022-06-21 02:00:10.0 39.4 4534.6 4352.0 3123.2 26.6
wp6 2022-06-21 02:00:07.0 39.1 1795.9 6374.4 409.6 26.6
wp4 2022-06-21 02:00:06.0 39.1 6378.3 6144.0 409.6 26.5
wp7 2022-06-21 02:00:06.0 39.3 3587.5 4352.0 4838.4 26.6
wp36 2022-06-21 01:00:10.0 39.4 3971.4 4761.6 4556.8 26.6
wp6 2022-06-21 01:00:08.0 39.2 2896.7 76.8 409.6 26.6
wp4 2022-06-21 01:00:06.0 39.1 208.7 6425.6 409.6 26.6
wp7 2022-06-21 01:00:06.0 39.3 3971.5 4608.0 4428.8 26.6
wp7 2022-06-21 00:00:26.0 39.3 4099.5 5913.6 4531.2 26.6
wp36 2022-06-21 00:00:10.0 39.4 5763.4 6067.2 2585.6 26.6
wp6 2022-06-21 00:00:08.0 39.2 2256.7 1459.2 409.6 26.6
wp4 2022-06-21 00:00:06.0 39.2 336.7 1177.6 409.6 26.6
wp7 2022-06-20 23:00:26.0 39.3 3229.1 6067.2 5657.6 26.6
wp36 2022-06-20 23:00:10.0 39.4 4867.4 6220.8 3456.0 26.6
wp6 2022-06-20 23:00:08.0 39.2 2333.5 1587.2 409.6 26.6
wp4 2022-06-20 23:00:06.0 39.2 106.3 1228.8 409.6 26.6
wp36 2022-06-20 22:00:10.0 39.4 4611.4 5580.8 3558.4 26.6
wp6 2022-06-20 22:00:08.0 39.2 1181.5 947.2 409.6 26.6
wp4 2022-06-20 22:00:06.0 39.2 259.9 793.6 409.6 26.6
wp7 2022-06-20 22:00:06.0 39.3 2614.7 5427.2 6169.6 26.6
wp36 2022-06-20 21:00:10.0 39.4 4790.6 5299.2 4096.0 26.6
wp6 2022-06-20 21:00:08.0 39.2 1872.7 537.6 409.6 26.6
wp4 2022-06-20 21:00:06.0 39.2 925.5 512.0 409.6 26.6
wp7 2022-06-20 21:00:06.0 39.3 2998.7 5145.6 6220.8 26.6
wp7 2022-06-20 20:00:26.0 39.3 4355.5 3763.2 5811.2 26.6
wp36 2022-06-20 20:00:10.0 39.4 5686.6 3916.8 4198.4 26.6
wp6 2022-06-20 20:00:09.0 39.1 3715.9 5708.8 409.6 26.6
wp4 2022-06-20 20:00:06.0 39.1 2231.1 5657.6 409.6 26.6
wp36 2022-06-20 19:00:10.0 39.4 2000.2 2432.0 2739.2 26.7
wp6 2022-06-20 19:00:09.0 39.1 6480.7 4198.4 409.6 26.6
wp4 2022-06-20 19:00:06.0 39.1 4099.9 4198.4 409.6 26.6
wp7 2022-06-20 19:00:05.0 39.3 489.9 2227.2 5683.2 26.7
wp36 2022-06-20 18:00:10.0 39.4 5149.0 76.8 3507.2 26.7
wp6 2022-06-20 18:00:09.0 39.1 234.1 1792.0 1254.4 26.9
wp4 2022-06-20 18:00:06.0 39.1 797.5 1868.8 409.6 26.7
wp7 2022-06-20 18:00:05.0 39.2 5891.5 6272.0 3302.4 26.7
wp7 2022-06-20 17:01:25.0 39.2 1974.6 5657.6 3430.4 27.0
wp36 2022-06-20 17:00:10.0 39.3 3433.8 5785.6 2099.2 26.8
wp6 2022-06-20 17:00:09.0 39.1 4458.1 1433.6 5452.8 27.1
wp4 2022-06-20 17:00:06.0 39.1 2410.3 1203.2 409.6 26.8
wp7 2022-06-20 16:00:25.0 39.2 2358.6 6272.0 5068.8 27.0
wp36 2022-06-20 16:00:10.0 39.3 5225.8 6400.0 3968.0 26.8
wp6 2022-06-20 16:00:09.0 39.1 4791.0 1894.4 6220.8 26.9
wp4 2022-06-20 16:00:06.0 39.1 2768.7 1689.6 409.6 26.8
wp4 2022-06-20 15:00:26.0 39.1 5789.5 3686.4 409.6 26.8
wp7 2022-06-20 15:00:25.0 39.3 4201.9 1715.2 204.8 27.0
wp6 2022-06-20 15:00:10.0 39.1 746.3 4019.2 409.6 27.1
wp36 2022-06-20 15:00:10.0 39.4 2921.8 1766.4 1792.0 26.9
wp7 2022-06-20 14:00:25.0 39.3 3408.2 3609.6 5017.6 26.9
wp6 2022-06-20 14:00:10.0 39.1 3792.7 5939.2 409.6 27.0
wp36 2022-06-20 14:00:10.0 39.4 5302.6 3686.4 1484.8 26.8
wp4 2022-06-20 14:00:06.0 39.1 2922.3 5632.0 409.6 26.8
wp7 2022-06-20 13:00:25.0 39.4 6454.7 256.0 307.2 26.8
wp6 2022-06-20 13:00:10.0 39.2 2103.1 2304.0 409.6 26.9
wp36 2022-06-20 13:00:10.0 39.5 4790.6 384.0 2636.8 26.8
wp4 2022-06-20 13:00:06.0 39.2 1821.5 2329.6 409.6 26.8
wp6 2022-06-20 12:00:10.0 39.2 5379.9 4326.4 409.6 26.9
wp36 2022-06-20 12:00:10.0 39.5 5430.6 2252.8 4326.4 26.8
wp4 2022-06-20 12:00:06.0 39.2 3306.3 4275.2 409.6 26.8
wp7 2022-06-20 12:00:05.0 39.4 669.1 2176.0 1945.6 26.9
wp6 2022-06-20 11:00:10.0 39.2 2845.5 4633.6 409.6 26.9
wp36 2022-06-20 11:00:10.0 39.5 5302.7 2508.8 0.0 26.8
wp4 2022-06-20 11:00:06.0 39.2 1898.3 4505.6 409.6 26.8
wp7 2022-06-20 11:00:05.0 39.4 3433.9 2483.2 4889.6 26.8
wp7 2022-06-20 10:00:25.0 39.4 5968.4 2841.6 2560.0 26.7
wp6 2022-06-20 10:00:11.0 39.2 413.5 4915.2 409.6 26.8
wp36 2022-06-20 10:00:10.0 39.5 669.1 2841.6 665.6 26.8
wp4 2022-06-20 10:00:06.0 39.2 4099.9 4736.0 409.6 26.7
wp7 2022-06-20 09:01:45.0 39.4 4995.6 3072.0 3225.6 26.6
wp6 2022-06-20 09:00:11.0 39.2 1565.5 5196.8 409.6 26.7
wp36 2022-06-20 09:00:10.0 39.5 1437.0 3072.0 4812.8 26.7
wp4 2022-06-20 09:00:06.0 39.2 5149.5 5068.8 409.6 26.6
wp6 2022-06-20 08:00:11.0 39.2 3818.3 3968.0 409.6 26.6
wp36 2022-06-20 08:00:10.0 39.5 6249.8 2048.0 5171.2 26.6
wp4 2022-06-20 08:00:06.0 39.2 2103.1 3686.4 409.6 26.6
wp7 2022-06-20 08:00:05.0 39.4 1898.0 1996.8 2995.2 26.6
wp4 2022-06-20 07:00:26.0 39.2 1104.7 1715.2 409.6 26.6
wp6 2022-06-20 07:00:11.0 39.2 2743.1 1843.2 409.6 26.6
wp36 2022-06-20 07:00:10.0 39.5 4713.8 76.8 6323.2 26.6
wp7 2022-06-20 07:00:05.0 39.3 2589.2 6400.0 972.8 26.6
wp7 2022-06-20 06:00:25.0 39.3 3331.5 5606.4 6195.2 26.6
wp6 2022-06-20 06:00:11.0 39.2 3843.9 1126.4 409.6 26.6
wp36 2022-06-20 06:00:10.0 39.4 566.6 5785.6 3609.6 26.7
wp4 2022-06-20 06:00:06.0 39.2 1693.5 972.8 409.6 26.6
wp7 2022-06-20 05:00:25.0 39.3 5609.9 4940.8 4326.4 26.6
wp6 2022-06-20 05:00:12.0 39.2 4714.3 537.6 409.6 26.6
wp36 2022-06-20 05:00:10.0 39.4 438.6 5120.0 3891.2 26.7
wp4 2022-06-20 05:00:06.0 39.2 2435.9 384.0 409.6 26.6
wp7 2022-06-20 04:00:25.0 39.3 5097.9 4633.6 5171.2 26.6
wp6 2022-06-20 04:00:12.0 39.2 4535.1 204.8 409.6 26.6
wp36 2022-06-20 04:00:10.0 39.4 541.0 4864.0 3916.8 26.7
wp4 2022-06-20 04:00:06.0 39.2 2563.9 51.2 409.6 26.6
wp6 2022-06-20 03:00:12.0 39.2 5815.1 1203.2 409.6 26.6
wp36 2022-06-20 03:00:10.0 39.4 771.4 5734.4 3584.0 26.7
wp4 2022-06-20 03:00:06.0 39.2 3203.9 1177.6 409.6 26.6
wp7 2022-06-20 03:00:05.0 39.3 5968.3 5529.6 4992.0 26.6
wp7 2022-06-20 02:00:25.0 39.3 4944.3 6041.6 5734.4 26.6
wp6 2022-06-20 02:00:12.0 39.2 4842.3 1612.8 409.6 26.6
wp36 2022-06-20 02:00:10.0 39.4 336.2 6195.2 3635.2 26.7
wp4 2022-06-20 02:00:06.0 39.2 2589.5 1510.4 409.6 26.6
wp6 2022-06-20 01:00:12.0 39.2 4099.9 2252.8 409.6 26.6
wp36 2022-06-20 01:00:10.0 39.5 489.8 281.6 3660.8 26.7
wp4 2022-06-20 01:00:06.0 39.2 2512.7 2099.2 409.6 26.6
wp7 2022-06-20 01:00:05.0 39.4 4099.5 51.2 6195.2 26.6
wp6 2022-06-20 00:00:13.0 39.2 4151.1 3148.8 409.6 26.6
wp36 2022-06-20 00:00:10.0 39.5 413.0 1100.8 4582.4 26.7
wp4 2022-06-20 00:00:06.0 39.2 2743.1 3072.0 409.6 26.6
wp7 2022-06-20 00:00:05.0 39.4 4457.9 947.2 6425.6 26.6
wp6 2022-06-19 23:00:13.0 39.2 2333.5 2944.0 409.6 26.6
wp36 2022-06-19 23:00:10.0 39.5 4457.9 896.0 409.6 26.6
wp4 2022-06-19 23:00:06.0 39.2 1923.9 2892.8 409.6 26.6
wp7 2022-06-19 23:00:05.0 39.4 2870.8 768.0 384.0 26.6
wp7 2022-06-19 22:00:24.0 39.4 950.8 1459.2 281.6 26.6
wp6 2022-06-19 22:00:13.0 39.2 6071.1 3532.8 409.6 26.5
wp36 2022-06-19 22:00:10.0 39.5 3382.6 1689.6 5990.4 26.6
wp4 2022-06-19 22:00:06.0 39.2 157.5 3507.2 409.6 26.6
wp6 2022-06-19 21:00:13.0 39.2 2103.1 1408.0 409.6 26.6
wp36 2022-06-19 21:00:10.0 39.4 1232.2 6144.0 3993.6 26.7
wp4 2022-06-19 21:00:06.0 39.2 3562.3 1510.4 409.6 26.6
wp7 2022-06-19 21:00:04.0 39.3 3843.5 6041.6 5811.2 26.6
wp6 2022-06-19 20:00:13.0 39.1 3536.7 5606.4 409.6 26.6
wp36 2022-06-19 20:00:10.0 39.4 2384.2 3686.4 3635.2 26.7
wp4 2022-06-19 20:00:06.0 39.1 4227.9 5529.6 409.6 26.6
wp7 2022-06-19 20:00:04.0 39.3 4637.1 3507.2 5632.0 26.6
wp7 2022-06-19 19:00:24.0 39.3 464.3 1203.2 4710.4 26.7
wp6 2022-06-19 19:00:14.0 39.1 5021.5 3404.8 409.6 26.6
wp36 2022-06-19 19:00:10.0 39.4 3613.0 1356.8 3788.8 26.7
wp4 2022-06-19 19:00:06.0 39.1 6301.5 3251.2 409.6 26.6
wp6 2022-06-19 18:00:14.0 39.1 2051.9 742.4 409.6 26.7
wp36 2022-06-19 18:00:10.0 39.3 5917.0 5299.2 3635.2 26.7
wp4 2022-06-19 18:00:06.0 39.1 3511.1 896.0 409.6 26.7
wp7 2022-06-19 18:00:04.0 39.2 2742.7 5299.2 5632.0 26.7
wp4 2022-06-19 17:00:46.0 39.1 3434.3 614.4 409.6 26.8
wp6 2022-06-19 17:00:14.0 39.1 6199.1 460.8 409.6 26.7
wp36 2022-06-19 17:00:10.0 39.3 3433.8 4915.2 3788.8 26.8
wp7 2022-06-19 17:00:04.0 39.2 3485.1 4940.8 4044.8 26.8
wp6 2022-06-19 16:00:14.0 39.1 3946.3 640.0 409.6 26.7
wp36 2022-06-19 16:00:10.0 39.3 5789.0 5376.0 3430.4 26.8
wp4 2022-06-19 16:00:06.0 39.1 3767.1 998.4 409.6 26.8
wp7 2022-06-19 16:00:04.0 39.2 3766.7 5299.2 742.4 26.8
wp6 2022-06-19 15:00:14.0 39.1 106.2 1280.0 25.6 26.9
wp36 2022-06-19 15:00:10.0 39.3 1974.6 6144.0 1484.8 27.0
wp4 2022-06-19 15:00:06.0 39.1 2768.7 1766.4 409.6 26.9
wp7 2022-06-19 15:00:04.0 39.2 2947.3 5990.4 2816.0 27.0
wp7 2022-06-19 14:00:24.0 39.3 2025.7 921.6 998.4 27.0
wp6 2022-06-19 14:00:15.0 39.1 362.1 2790.4 844.8 26.9
wp36 2022-06-19 14:00:10.0 39.4 617.7 1049.6 5376.0 27.1
wp4 2022-06-19 14:00:06.0 39.1 3024.7 3225.6 409.6 26.9
wp7 2022-06-19 13:00:44.0 39.3 4073.9 3302.4 3020.8 26.8
wp6 2022-06-19 13:00:15.0 39.1 106.3 5248.0 409.6 26.8
wp36 2022-06-19 13:00:10.0 39.4 3536.2 3328.0 1689.6 26.9
wp4 2022-06-19 13:00:06.0 39.1 5994.3 5452.8 409.6 26.8
wp6 2022-06-19 12:00:15.0 39.2 5763.9 537.6 409.6 26.8
wp36 2022-06-19 12:00:10.0 39.4 2845.0 5145.6 2713.6 27.0
wp4 2022-06-19 12:00:06.0 39.2 4611.9 665.6 409.6 26.9
wp7 2022-06-19 12:00:04.0 39.3 3305.9 5171.2 4172.8 26.9
wp7 2022-06-19 11:00:24.0 39.4 592.3 51.2 4172.8 26.9
wp6 2022-06-19 11:00:15.0 39.2 5354.0 2124.8 2944.0 27.0
wp36 2022-06-19 11:00:10.0 39.5 6531.3 179.2 4224.0 27.0
wp4 2022-06-19 11:00:06.0 39.2 1821.5 2278.4 409.6 27.0
wp4 2022-06-19 10:00:26.0 39.2 2589.5 3481.6 409.6 26.9
wp6 2022-06-19 10:00:15.0 39.2 4304.5 3251.2 2355.2 26.9
wp36 2022-06-19 10:00:10.0 39.5 6301.0 1356.8 3379.2 26.9
wp7 2022-06-19 10:00:04.0 39.4 5609.9 1228.8 921.6 26.9
wp6 2022-06-19 09:00:16.0 39.2 1488.7 4070.4 409.6 26.8
wp36 2022-06-19 09:00:10.0 39.5 694.6 2022.4 2867.2 26.8
wp4 2022-06-19 09:00:06.0 39.2 1591.1 3993.6 409.6 26.7
wp7 2022-06-19 09:00:04.0 39.4 5353.9 1920.0 5376.0 26.7
wp7 2022-06-19 08:00:24.0 39.4 1693.2 1740.8 3430.4 26.6
wp6 2022-06-19 08:00:16.0 39.2 2435.9 3763.2 409.6 26.6
wp36 2022-06-19 08:00:10.0 39.5 4867.4 1843.2 5990.4 26.6
wp4 2022-06-19 08:00:06.0 39.2 80.7 3532.8 409.6 26.6
wp6 2022-06-19 07:00:16.0 39.2 5866.3 2841.6 409.6 26.5
wp36 2022-06-19 07:00:10.0 39.5 1616.2 972.8 5324.8 26.6
wp4 2022-06-19 07:00:06.0 39.2 4995.9 2867.2 409.6 26.5
wp7 2022-06-19 07:00:04.0 39.4 6505.9 844.8 6246.4 26.5
wp4 2022-06-19 06:00:46.0 39.2 5277.5 1843.2 409.6 26.5
wp6 2022-06-19 06:00:16.0 39.2 4253.5 1920.0 409.6 26.5
wp36 2022-06-19 06:00:10.0 39.4 1232.2 6502.4 4531.2 26.6
wp7 2022-06-19 06:00:04.0 39.3 5814.7 6451.2 4736.0 26.5
wp7 2022-06-19 05:01:44.0 39.3 4816.3 5196.8 6297.6 26.5
wp6 2022-06-19 05:00:16.0 39.2 5456.7 614.4 409.6 26.5
wp36 2022-06-19 05:00:10.0 39.4 464.2 5299.2 5964.8 26.6
wp4 2022-06-19 05:00:06.0 39.2 4074.3 512.0 409.6 26.5
wp4 2022-06-19 04:00:26.0 39.2 4970.3 204.8 409.6 26.5
wp7 2022-06-19 04:00:24.0 39.3 5430.7 4659.2 5632.0 26.5
wp6 2022-06-19 04:00:17.0 39.2 4330.3 179.2 409.6 26.5
wp36 2022-06-19 04:00:10.0 39.4 1078.6 4940.8 5094.4 26.6
wp6 2022-06-19 03:00:17.0 39.2 5047.1 1510.4 409.6 26.5
wp36 2022-06-19 03:00:10.0 39.4 1027.4 6169.6 5785.6 26.6
wp4 2022-06-19 03:00:06.0 39.2 4560.7 1382.4 409.6 26.5
wp7 2022-06-19 03:00:03.0 39.3 5763.6 6041.6 204.8 26.5
wp6 2022-06-19 02:00:17.0 39.2 3869.5 1971.2 409.6 26.5
wp36 2022-06-19 02:00:10.0 39.5 6045.1 204.8 384.0 26.5
wp4 2022-06-19 02:00:06.0 39.2 4074.3 1894.4 409.6 26.5
wp7 2022-06-19 02:00:04.0 39.3 5021.2 6476.8 665.6 26.5
wp4 2022-06-19 01:00:26.0 39.2 5405.5 3123.2 409.6 26.5
wp6 2022-06-19 01:00:17.0 39.2 6352.7 3148.8 409.6 26.5
wp36 2022-06-19 01:00:10.0 39.5 2717.0 1356.8 4992.0 26.6
wp7 2022-06-19 01:00:03.0 39.4 771.5 1049.6 5785.6 26.6
wp6 2022-06-19 00:00:17.0 39.2 6506.3 4761.6 409.6 26.5
wp36 2022-06-19 00:00:10.0 39.5 2435.4 2969.6 5990.4 26.6
wp4 2022-06-19 00:00:06.0 39.2 5994.3 4864.0 409.6 26.5
wp7 2022-06-19 00:00:03.0 39.4 1411.5 2816.0 5580.8 26.6
wp6 2022-06-18 23:00:18.0 39.2 6327.1 5171.2 409.6 26.5
wp36 2022-06-18 23:00:11.0 39.5 2461.0 3379.2 5478.4 26.6
wp4 2022-06-18 23:00:06.0 39.2 6199.1 5273.6 409.6 26.5
wp7 2022-06-18 23:00:03.0 39.4 1769.9 3174.4 5452.8 26.6
wp6 2022-06-18 22:00:18.0 39.2 5763.9 4582.4 409.6 26.5
wp36 2022-06-18 22:00:10.0 39.5 1590.7 2841.6 204.8 26.6
wp4 2022-06-18 22:00:06.0 39.2 5712.7 4684.8 409.6 26.5
wp7 2022-06-18 22:00:03.0 39.4 1334.7 2585.6 6476.8 26.6
wp6 2022-06-18 21:00:18.0 39.2 5559.1 4096.0 409.6 26.5
wp36 2022-06-18 21:00:10.0 39.5 873.9 2150.4 486.4 26.6
wp4 2022-06-18 21:00:06.0 39.2 5405.5 4198.4 409.6 26.5
wp7 2022-06-18 21:00:03.0 39.4 746.0 2124.8 665.6 26.6
wp4 2022-06-18 20:00:46.0 39.2 5994.3 2201.6 409.6 26.5
wp7 2022-06-18 20:00:23.0 39.3 1155.5 6476.8 6118.4 26.6
wp6 2022-06-18 20:00:18.0 39.2 387.9 1817.6 409.6 26.6
wp36 2022-06-18 20:00:11.0 39.5 3049.8 76.8 5555.2 26.6
wp7 2022-06-18 19:00:23.0 39.3 3049.9 4684.8 5478.4 26.6
wp6 2022-06-18 19:00:18.0 39.2 2922.3 128.0 409.6 26.6
wp36 2022-06-18 19:00:11.0 39.4 4509.0 4966.4 6144.0 26.6
wp4 2022-06-18 19:00:06.0 39.2 1104.7 384.0 409.6 26.6
wp7 2022-06-18 18:00:23.0 39.3 2742.7 1792.0 2176.0 26.8
wp6 2022-06-18 18:00:19.0 39.1 80.6 4044.8 4966.4 26.9
wp36 2022-06-18 18:00:11.0 39.4 3024.2 2124.8 4761.6 26.8
wp4 2022-06-18 18:00:06.0 39.1 4663.1 4377.6 409.6 26.7
wp4 2022-06-18 17:00:26.0 39.1 1847.1 2278.4 409.6 26.9
wp7 2022-06-18 17:00:23.0 39.2 1693.0 6348.8 1868.8 27.1
wp6 2022-06-18 17:00:19.0 39.1 1847.0 2022.4 947.2 27.2
wp36 2022-06-18 17:00:11.0 39.3 2102.6 6425.6 3148.8 26.9
wp6 2022-06-18 16:00:19.0 39.1 1258.1 1766.4 1024.0 27.1
wp36 2022-06-18 16:00:11.0 39.3 745.8 6502.4 3379.2 27.0
wp4 2022-06-18 16:00:06.0 39.1 5200.7 2304.0 409.6 26.9
wp7 2022-06-18 16:00:03.0 39.2 3049.7 6374.4 4582.4 27.1
wp6 2022-06-18 15:00:19.0 39.1 4125.4 3840.0 4940.8 27.3
wp36 2022-06-18 15:00:11.0 39.4 5763.3 1715.2 5222.4 27.1
wp4 2022-06-18 15:00:06.0 39.1 2819.9 3891.2 409.6 27.0
wp7 2022-06-18 15:00:03.0 39.3 2640.1 1689.6 1254.4 27.2
wp6 2022-06-18 14:00:19.0 39.1 4995.9 5504.0 409.6 27.0
wp36 2022-06-18 14:00:11.0 39.4 5277.0 3763.2 716.8 27.0
wp4 2022-06-18 14:00:06.0 39.1 80.7 5734.4 409.6 27.0
wp7 2022-06-18 14:00:03.0 39.3 3049.8 3507.2 4121.6 27.0
wp36 2022-06-18 13:00:11.0 39.4 105.7 6041.6 4300.8 27.1
wp4 2022-06-18 13:00:06.0 39.2 1411.9 1638.4 409.6 27.1
wp7 2022-06-18 13:00:03.0 39.3 4969.7 5734.4 4147.2 27.0
wp6 2022-06-18 13:00:00.0 39.2 2256.7 1843.2 409.6 27.4
wp7 2022-06-18 12:00:23.0 39.4 669.0 640.0 3379.2 27.0
wp36 2022-06-18 12:00:10.0 39.5 4636.9 793.6 5862.4 27.1
wp4 2022-06-18 12:00:06.0 39.2 1591.1 2816.0 409.6 27.1
wp6 2022-06-18 12:00:00.0 39.2 2743.0 2739.2 1766.4 27.1
wp36 2022-06-18 11:00:11.0 39.5 310.6 2278.4 3097.6 27.1
wp4 2022-06-18 11:00:06.0 39.2 3434.3 4377.6 409.6 26.9
wp7 2022-06-18 11:00:03.0 39.4 3049.8 2073.6 4812.8 26.9
wp6 2022-06-18 11:00:00.0 39.2 413.5 4224.0 409.6 27.0
wp4 2022-06-18 10:00:25.0 39.2 2896.7 5708.8 409.6 26.9
wp7 2022-06-18 10:00:23.0 39.4 4560.3 3404.8 3251.2 26.8
wp36 2022-06-18 10:00:10.0 39.5 1001.8 3532.8 4915.2 26.9
wp6 2022-06-18 10:00:00.0 39.2 3.7 5529.6 2406.4 27.0
wp36 2022-06-18 09:00:11.0 39.5 3.4 3328.0 5452.8 26.8
wp4 2022-06-18 09:00:05.0 39.2 2487.1 5350.4 409.6 26.7
wp7 2022-06-18 09:00:03.0 39.4 6275.6 3174.4 2483.2 26.6
wp6 2022-06-18 09:00:00.0 39.2 1079.1 5478.4 409.6 26.8
wp4 2022-06-18 08:00:25.0 39.2 541.5 3763.2 409.6 26.7
wp7 2022-06-18 08:00:22.0 39.4 5840.3 1664.0 6195.2 26.6
wp36 2022-06-18 08:00:10.0 39.5 6147.4 1868.8 5529.6 26.7
wp6 2022-06-18 08:00:01.0 39.2 5661.4 3763.2 5068.8 26.6
wp4 2022-06-18 07:00:25.0 39.2 6275.9 2073.6 409.6 26.5
wp36 2022-06-18 07:00:11.0 39.5 2870.6 307.2 5043.2 26.6
wp7 2022-06-18 07:00:02.0 39.4 3536.3 204.8 4582.4 26.6
wp6 2022-06-18 07:00:01.0 39.2 899.9 2124.8 409.6 26.6
wp7 2022-06-18 06:00:22.0 39.4 2614.8 25.6 1049.6 26.5
wp36 2022-06-18 06:00:11.0 39.5 6275.4 230.4 3891.2 26.5
wp4 2022-06-18 06:00:05.0 39.2 2435.9 2099.2 409.6 26.5
wp6 2022-06-18 06:00:01.0 39.2 3536.7 2073.6 409.6 26.5
wp36 2022-06-18 05:00:11.0 39.4 4790.6 6246.4 4889.6 26.5
wp4 2022-06-18 05:00:06.0 39.2 2026.3 1536.0 409.6 26.5
wp7 2022-06-18 05:00:02.0 39.3 3945.9 5964.8 4992.0 26.5
wp6 2022-06-18 05:00:01.0 39.2 2922.3 1612.8 409.6 26.5
wp7 2022-06-18 04:00:22.0 39.3 3766.7 6016.0 5145.6 26.5
wp36 2022-06-18 04:00:11.0 39.4 4329.8 6169.6 5401.6 26.5
wp4 2022-06-18 04:00:06.0 39.2 2000.7 1484.8 409.6 26.5
wp6 2022-06-18 04:00:01.0 39.2 2640.7 1587.2 409.6 26.5
wp4 2022-06-18 03:00:25.0 39.2 1591.1 2329.6 409.6 26.5
wp7 2022-06-18 03:00:22.0 39.4 3126.7 153.6 5580.8 26.5
wp36 2022-06-18 03:00:11.0 39.5 4022.6 435.2 6016.0 26.5
wp6 2022-06-18 03:00:02.0 39.2 2051.9 2252.8 409.6 26.5
wp7 2022-06-18 02:00:22.0 39.4 1949.2 1817.6 332.8 26.5
wp36 2022-06-18 02:00:11.0 39.5 3280.3 2048.0 204.8 26.5
wp4 2022-06-18 02:00:05.0 39.2 976.7 3968.0 409.6 26.5
wp6 2022-06-18 02:00:02.0 39.2 1411.9 3865.6 409.6 26.5
wp36 2022-06-18 01:00:11.0 39.5 1769.8 4044.8 5888.0 26.6
wp4 2022-06-18 01:00:05.0 39.2 4688.7 5836.8 409.6 26.5
wp6 2022-06-18 01:00:02.0 39.2 6531.9 5836.8 409.6 26.5
wp7 2022-06-18 01:00:02.0 39.4 592.3 3737.6 5683.2 26.6
wp4 2022-06-18 00:00:45.0 39.3 5277.5 1484.8 409.6 26.5
wp7 2022-06-18 00:00:22.0 39.4 2025.9 5888.0 4147.2 26.6
wp36 2022-06-18 00:00:11.0 39.5 2384.2 6195.2 4172.8 26.6
wp6 2022-06-18 00:00:02.0 39.3 6327.1 1459.2 409.6 26.5
wp4 2022-06-17 23:00:25.0 39.3 5226.3 2304.0 409.6 26.5
wp36 2022-06-17 23:00:11.0 39.6 2281.8 460.8 4889.6 26.6
wp6 2022-06-17 23:00:02.0 39.3 183.1 2329.6 409.6 26.6
wp7 2022-06-17 23:00:02.0 39.5 1693.1 230.4 4787.2 26.6
wp4 2022-06-17 22:00:25.0 39.3 4586.3 1433.6 409.6 26.5
wp7 2022-06-17 22:00:22.0 39.4 6429.1 5836.8 5145.6 26.5
wp36 2022-06-17 22:00:11.0 39.5 899.4 6169.6 5120.0 26.6
wp6 2022-06-17 22:00:03.0 39.3 4458.3 1331.2 409.6 26.5
wp36 2022-06-17 21:00:11.0 39.5 1181.0 5222.4 5171.2 26.6
wp4 2022-06-17 21:00:05.0 39.3 3920.7 435.2 409.6 26.5
wp6 2022-06-17 21:00:03.0 39.3 4714.3 486.4 409.6 26.5
wp7 2022-06-17 21:00:02.0 39.4 105.9 4992.0 6425.6 26.6
wp36 2022-06-17 20:00:11.0 39.5 3357.0 2534.4 5939.2 26.6
wp4 2022-06-17 20:00:05.0 39.2 5149.5 4403.2 409.6 26.5
wp6 2022-06-17 20:00:03.0 39.2 336.7 4224.0 409.6 26.6
wp7 2022-06-17 20:00:02.0 39.4 618.0 2150.4 1228.8 26.6
wp36 2022-06-17 19:00:11.0 39.5 4253.0 460.8 5580.8 26.6
wp4 2022-06-17 19:00:05.0 39.2 5635.9 2329.6 409.6 26.5
wp6 2022-06-17 19:00:03.0 39.2 797.5 1945.6 409.6 26.6
wp7 2022-06-17 19:00:02.0 39.4 976.4 76.8 1433.6 26.6
wp36 2022-06-17 18:00:11.0 39.4 5661.1 5427.2 179.2 26.6
wp4 2022-06-17 18:00:05.0 39.2 1719.1 1024.0 409.6 26.6
wp6 2022-06-17 18:00:03.0 39.2 5789.5 614.4 409.6 26.6
wp7 2022-06-17 18:00:02.0 39.3 4688.3 5017.6 5964.8 26.6
wp36 2022-06-17 17:00:11.0 39.4 1846.6 3942.4 6118.4 26.7
wp4 2022-06-17 17:00:05.0 39.1 5610.3 5862.4 409.6 26.6
wp6 2022-06-17 17:00:04.0 39.1 6480.6 5529.6 5068.8 26.7
wp7 2022-06-17 17:00:02.0 39.3 3254.7 3532.8 3737.6 26.7
wp36 2022-06-17 16:00:11.0 39.4 5609.8 4147.2 5836.8 26.7
wp4 2022-06-17 16:00:05.0 39.1 2512.7 6425.6 409.6 26.7
wp6 2022-06-17 16:00:04.0 39.1 4176.5 6041.6 0.0 27.0
wp7 2022-06-17 16:00:02.0 39.3 6096.1 3968.0 2508.8 26.9
wp36 2022-06-17 15:00:11.0 39.4 1155.4 4633.6 4428.8 26.9
wp4 2022-06-17 15:00:06.0 39.2 5507.9 179.2 409.6 26.7
wp6 2022-06-17 15:00:04.0 39.2 4765.5 76.8 409.6 27.0
wp7 2022-06-17 15:00:02.0 39.3 3715.5 4505.6 2380.8 26.9
wp36 2022-06-17 14:00:11.0 39.5 2640.3 588.8 25.6 26.9
wp4 2022-06-17 14:00:05.0 39.2 720.7 2688.0 409.6 26.8
wp6 2022-06-17 14:00:04.0 39.2 387.9 2611.2 409.6 27.0
wp7 2022-06-17 14:00:02.0 39.4 285.1 460.8 2508.8 26.9
wp7 2022-06-17 13:00:21.0 39.4 6019.5 1612.8 1382.4 26.8
wp36 2022-06-17 13:00:11.0 39.5 2589.0 1843.2 3097.6 26.9
wp4 2022-06-17 13:00:05.0 39.2 6122.3 4044.8 409.6 26.7
wp6 2022-06-17 13:00:04.0 39.2 3997.5 3891.2 409.6 26.9
wp36 2022-06-17 12:00:11.0 39.5 3664.2 2150.4 3379.2 26.9
wp4 2022-06-17 12:00:05.0 39.2 2384.7 4377.6 409.6 26.9
wp6 2022-06-17 12:00:05.0 39.2 4355.7 4198.4 5068.8 27.0
wp7 2022-06-17 12:00:01.0 39.4 1897.6 1868.8 6502.4 27.0
wp36 2022-06-17 11:00:11.0 39.5 3971.4 2944.0 588.8 27.1
wp4 2022-06-17 11:00:05.0 39.2 2307.9 4889.6 409.6 26.9
wp6 2022-06-17 11:00:05.0 39.2 2589.4 4915.2 6195.2 27.0
wp7 2022-06-17 11:00:01.0 39.4 2563.4 2739.2 742.4 26.9
wp7 2022-06-17 10:00:21.0 39.4 3229.2 4121.6 51.2 26.7
wp36 2022-06-17 10:00:11.0 39.5 208.3 4377.6 793.6 26.8
wp4 2022-06-17 10:00:05.0 39.2 5379.9 6297.6 409.6 26.6
wp6 2022-06-17 10:00:05.0 39.2 5840.7 6374.4 409.6 26.7
wp7 2022-06-17 09:00:21.0 39.4 6378.0 4019.2 1638.4 26.6
wp36 2022-06-17 09:00:11.0 39.5 2589.0 4121.6 6092.8 26.7
wp4 2022-06-17 09:00:05.0 39.2 3152.7 5836.8 409.6 26.6
wp6 2022-06-17 09:00:05.0 39.2 1514.3 6041.6 409.6 26.7
wp36 2022-06-17 08:00:11.0 39.5 6403.5 3200.0 1126.4 26.6
wp4 2022-06-17 08:00:05.0 39.2 1591.1 4940.8 409.6 26.6
wp6 2022-06-17 08:00:05.0 39.2 4867.9 5120.0 409.6 26.6
wp7 2022-06-17 08:00:01.0 39.4 3075.6 2892.8 1100.8 26.6
wp4 2022-06-17 07:00:25.0 39.2 643.9 2048.0 409.6 26.6
wp36 2022-06-17 07:00:11.0 39.5 4457.9 614.4 3609.6 26.6
wp6 2022-06-17 07:00:06.0 39.2 2435.9 2380.8 409.6 26.6
wp7 2022-06-17 07:00:01.0 39.4 4022.8 204.8 1024.0 26.6
wp7 2022-06-17 06:00:21.0 39.3 5686.8 6220.8 2585.6 26.5
wp36 2022-06-17 06:00:11.0 39.4 617.9 6246.4 128.0 26.6
wp6 2022-06-17 06:00:06.0 39.2 4893.5 1664.0 409.6 26.5
wp4 2022-06-17 06:00:05.0 39.2 4970.3 1971.2 409.6 26.5
wp36 2022-06-17 05:00:11.0 39.4 6019.5 5862.4 512.0 26.5
wp6 2022-06-17 05:00:06.0 39.2 4355.9 1100.8 409.6 26.5
wp4 2022-06-17 05:00:05.0 39.2 4304.7 1203.2 409.6 26.5
wp7 2022-06-17 05:00:01.0 39.3 5430.8 5632.0 588.8 26.5
wp7 2022-06-17 04:00:21.0 39.3 3894.8 5427.2 2790.4 26.5
wp36 2022-06-17 04:00:11.0 39.4 4867.5 5785.6 1638.4 26.5
wp6 2022-06-17 04:00:06.0 39.2 3408.7 947.2 409.6 26.5
wp4 2022-06-17 04:00:05.0 39.2 3971.9 998.4 409.6 26.5
wp36 2022-06-17 03:00:11.0 39.5 208.3 153.6 1561.6 26.6
wp6 2022-06-17 03:00:06.0 39.2 6173.5 1894.4 409.6 26.5
wp4 2022-06-17 03:00:05.0 39.2 5456.7 1843.2 409.6 26.5
wp7 2022-06-17 03:00:01.0 39.3 6301.2 6502.4 1305.6 26.5
wp36 2022-06-17 02:00:11.0 39.5 1693.1 384.0 1843.2 26.6
wp6 2022-06-17 02:00:07.0 39.2 746.3 2150.4 409.6 26.6
wp4 2022-06-17 02:00:05.0 39.2 6378.3 2176.0 409.6 26.5
wp7 2022-06-17 02:00:01.0 39.4 438.8 102.4 3353.6 26.6
wp7 2022-06-17 01:00:21.0 39.4 2717.2 1280.0 1920.0 26.6
wp36 2022-06-17 01:00:11.0 39.5 4099.5 1638.4 153.6 26.6
wp6 2022-06-17 01:00:07.0 39.2 2666.3 3481.6 409.6 26.6
wp4 2022-06-17 01:00:05.0 39.2 387.9 3532.8 409.6 26.6
wp4 2022-06-17 00:00:25.0 39.2 592.7 4992.0 409.6 26.6
wp7 2022-06-17 00:00:21.0 39.4 2230.8 2995.2 3046.4 26.6
wp36 2022-06-17 00:00:11.0 39.5 3664.3 3251.2 998.4 26.6
wp6 2022-06-17 00:00:07.0 39.2 2103.1 5043.2 409.6 26.6
wp7 2022-06-16 23:00:21.0 39.4 2870.8 1996.8 2406.4 26.6
wp36 2022-06-16 23:00:11.0 39.5 4304.2 2252.8 6323.2 26.6
wp6 2022-06-16 23:00:07.0 39.2 2333.5 4121.6 409.6 26.6
wp4 2022-06-16 23:00:05.0 39.2 592.7 4096.0 409.6 26.6
wp36 2022-06-16 22:00:11.0 39.5 3766.7 1152.0 512.0 26.6
wp6 2022-06-16 22:00:07.0 39.2 2589.5 2918.4 409.6 26.6
wp4 2022-06-16 22:00:05.0 39.2 541.5 2764.8 409.6 26.6
wp7 2022-06-16 22:00:01.0 39.4 2666.0 793.6 2636.8 26.6
wp4 2022-06-16 21:00:25.0 39.2 1002.3 2380.8 409.6 26.6
wp7 2022-06-16 21:00:21.0 39.4 2947.6 204.8 2483.2 26.6
wp36 2022-06-16 21:00:11.0 39.5 4585.9 665.6 51.2 26.6
wp6 2022-06-16 21:00:08.0 39.2 2743.1 2329.6 409.6 26.6
wp7 2022-06-16 20:00:21.0 39.3 2512.4 4812.8 1868.8 26.6
wp36 2022-06-16 20:00:11.0 39.4 3433.9 5120.0 1100.8 26.6
wp6 2022-06-16 20:00:08.0 39.2 2359.1 384.0 409.6 26.6
wp4 2022-06-16 20:00:05.0 39.2 1283.9 409.6 409.6 26.6
wp7 2022-06-16 19:00:21.0 39.3 3434.0 3481.6 153.6 26.6
wp36 2022-06-16 19:00:11.0 39.4 4201.9 3686.4 998.4 26.6
wp6 2022-06-16 19:00:08.0 39.1 3434.3 5376.0 409.6 26.6
wp4 2022-06-16 19:00:05.0 39.1 1719.1 5632.0 409.6 26.6
wp4 2022-06-16 18:00:25.0 39.1 3997.5 3328.0 409.6 26.6
wp36 2022-06-16 18:00:11.0 39.4 5737.9 1152.0 1459.2 26.6
wp6 2022-06-16 18:00:08.0 39.1 2845.4 2969.6 3302.4 26.7
wp7 2022-06-16 18:00:01.0 39.3 617.9 870.4 3353.6 26.7
wp7 2022-06-16 17:00:21.0 39.3 3101.1 51.2 307.2 26.8
wp36 2022-06-16 17:00:11.0 39.4 4099.4 230.4 6067.2 26.7
wp6 2022-06-16 17:00:08.0 39.1 4355.7 2201.6 6451.2 26.9
wp4 2022-06-16 17:00:05.0 39.1 2538.3 2585.6 409.6 26.7
wp36 2022-06-16 16:00:11.0 39.4 5072.2 486.4 4044.8 26.8
wp6 2022-06-16 16:00:09.0 39.1 2128.5 2636.8 6016.0 27.1
wp4 2022-06-16 16:00:05.0 39.1 2538.3 2713.6 409.6 26.8
wp7 2022-06-16 16:00:00.0 39.3 4688.1 230.4 2329.6 27.0
wp36 2022-06-16 15:00:11.0 39.4 4611.4 2048.0 2124.8 26.9
wp6 2022-06-16 15:00:09.0 39.1 5123.9 4377.6 409.6 27.0
wp4 2022-06-16 15:00:05.0 39.1 1181.5 4224.0 409.6 26.9
wp7 2022-06-16 15:00:00.0 39.3 2742.6 1843.2 4352.0 26.9
wp7 2022-06-16 14:00:20.0 39.3 3485.1 4198.4 384.0 26.8
wp36 2022-06-16 14:00:11.0 39.4 822.6 4736.0 204.8 26.8
wp6 2022-06-16 14:00:09.0 39.2 6096.7 204.8 409.6 26.7
wp4 2022-06-16 14:00:05.0 39.2 6506.3 256.0 409.6 26.7
wp7 2022-06-16 13:00:20.0 39.4 771.1 537.6 1996.8 27.3
wp36 2022-06-16 13:00:11.0 39.5 1309.0 435.2 1740.8 27.0
wp6 2022-06-16 13:00:09.0 39.2 4253.3 2764.8 5401.6 27.1
wp4 2022-06-16 13:00:05.0 39.2 3050.3 2739.2 409.6 27.1
wp36 2022-06-16 12:01:11.0 39.5 5405.1 3072.0 3507.2 27.0
wp6 2022-06-16 12:00:09.0 39.2 5789.5 4864.0 409.6 26.8
wp4 2022-06-16 12:00:05.0 39.2 1591.1 5017.6 409.6 27.0
wp7 2022-06-16 12:00:00.0 39.4 6045.2 3020.8 1049.6 26.8
wp7 2022-06-16 11:00:20.0 39.4 4585.7 4377.6 4326.4 26.9
wp36 2022-06-16 11:00:11.0 39.5 2333.1 4761.6 2560.0 26.9
wp6 2022-06-16 11:00:10.0 39.2 3536.5 6502.4 3686.4 26.9
wp4 2022-06-16 11:00:05.0 39.3 3869.5 102.4 409.6 26.9
wp4 2022-06-16 10:00:25.0 39.3 5456.7 1203.2 409.6 26.9
wp36 2022-06-16 10:00:11.0 39.5 489.9 5555.2 3916.8 26.9
wp6 2022-06-16 10:00:10.0 39.3 567.1 1126.4 409.6 27.0
wp7 2022-06-16 10:00:00.0 39.4 2025.9 5427.2 1126.4 26.9
wp36 2022-06-16 09:00:31.0 39.5 3843.5 5017.6 4249.6 26.8
wp4 2022-06-16 09:00:25.0 39.3 6327.1 435.2 409.6 26.7
wp6 2022-06-16 09:00:10.0 39.3 4919.1 537.6 409.6 26.9
wp7 2022-06-16 09:00:00.0 39.4 5968.3 4710.4 6246.4 26.7
wp36 2022-06-16 08:00:31.0 39.5 2205.1 4300.8 5760.0 26.7
wp4 2022-06-16 08:00:25.0 39.2 259.9 6220.8 409.6 26.7
wp6 2022-06-16 08:00:10.0 39.2 2973.5 6195.2 409.6 26.7
wp7 2022-06-16 08:00:00.0 39.4 797.2 3968.0 1715.2 26.7
wp36 2022-06-16 07:00:51.0 39.5 2307.5 2176.0 5964.8 26.6
wp6 2022-06-16 07:00:10.0 39.2 3050.3 4044.8 409.6 26.6
wp4 2022-06-16 07:00:05.0 39.2 183.1 3865.6 409.6 26.6
wp7 2022-06-16 07:00:00.0 39.4 3945.9 1868.8 6348.8 26.6
wp36 2022-06-16 06:00:31.0 39.5 233.9 691.2 5632.0 26.6
wp6 2022-06-16 06:00:11.0 39.2 183.1 2432.0 409.6 26.6
wp4 2022-06-16 06:00:05.0 39.2 5200.7 2457.6 409.6 26.5
wp7 2022-06-16 06:00:00.0 39.4 899.5 435.2 6476.8 26.6
wp36 2022-06-16 05:01:11.0 39.4 899.5 5913.6 5427.2 26.6
wp7 2022-06-16 05:00:20.0 39.3 1821.1 5657.6 5785.6 26.6
wp6 2022-06-16 05:00:11.0 39.2 515.9 1254.4 409.6 26.6
wp4 2022-06-16 05:00:05.0 39.2 5431.1 1228.8 409.6 26.5
wp36 2022-06-16 04:01:31.0 39.4 822.7 5683.2 6195.2 26.6
wp6 2022-06-16 04:00:11.0 39.2 6327.1 921.6 409.6 26.5
wp4 2022-06-16 04:00:05.0 39.2 5661.5 793.6 409.6 26.5
wp7 2022-06-16 04:00:00.0 39.3 950.7 5273.6 5811.2 26.6
wp36 2022-06-16 03:01:11.0 39.4 1053.2 5632.0 76.8 26.6
wp7 2022-06-16 03:00:20.0 39.3 2307.5 5376.0 5094.4 26.6
wp6 2022-06-16 03:00:11.0 39.2 695.1 1024.0 409.6 26.6
wp4 2022-06-16 03:00:05.0 39.2 5815.1 870.4 409.6 26.5
wp7 2022-06-16 02:00:20.0 39.3 1846.7 6425.6 5068.8 26.6
wp36 2022-06-16 02:00:12.0 39.5 566.7 230.4 5913.6 26.6
wp6 2022-06-16 02:00:11.0 39.2 669.5 2150.4 409.6 26.6
wp4 2022-06-16 02:00:05.0 39.2 5303.1 1894.4 409.6 26.5
wp6 2022-06-16 01:00:32.0 39.2 80.7 3609.6 409.6 26.6
wp36 2022-06-16 01:00:32.0 39.5 336.3 1843.2 5862.4 26.6
wp4 2022-06-16 01:00:05.0 39.2 5482.3 3558.4 409.6 26.5
wp7 2022-06-16 01:00:00.0 39.4 2179.5 1408.0 5120.0 26.6
wp6 2022-06-16 00:00:12.0 39.2 5584.7 4224.0 409.6 26.5
wp36 2022-06-16 00:00:12.0 39.5 5610.0 2560.0 102.4 26.5
wp4 2022-06-16 00:00:05.0 39.2 4919.1 4121.6 409.6 26.5
wp7 2022-06-16 00:00:00.0 39.4 1181.1 2048.0 5171.2 26.6
wp6 2022-06-15 23:00:12.0 39.2 5687.1 4300.8 409.6 26.5
wp36 2022-06-15 23:00:12.0 39.5 5021.2 2611.2 128.0 26.5
wp4 2022-06-15 23:00:05.0 39.2 4125.5 4121.6 409.6 26.5
wp7 2022-06-15 23:00:00.0 39.4 745.9 2124.8 4352.0 26.6
wp6 2022-06-15 22:00:12.0 39.2 5891.9 4352.0 409.6 26.5
wp36 2022-06-15 22:00:12.0 39.5 4995.6 2560.0 460.8 26.5
wp4 2022-06-15 22:00:05.0 39.2 3971.9 4352.0 409.6 26.5
wp7 2022-06-15 22:00:00.0 39.4 259.5 2227.2 3456.0 26.6
wp36 2022-06-15 21:00:32.0 39.5 1411.5 1971.2 5427.2 26.6
wp6 2022-06-15 21:00:12.0 39.2 1411.9 3737.6 409.6 26.6
wp4 2022-06-15 21:00:05.0 39.2 6352.7 3660.8 409.6 26.5
wp7 2022-06-15 21:00:00.0 39.4 2921.9 1459.2 25.6 26.6
wp36 2022-06-15 20:00:32.0 39.4 5072.3 6220.8 5811.2 26.6
wp7 2022-06-15 20:00:19.0 39.3 5174.6 5836.8 4736.0 26.6
wp6 2022-06-15 20:00:13.0 39.2 3946.3 1356.8 409.6 26.6
wp4 2022-06-15 20:00:05.0 39.2 1821.5 1331.2 409.6 26.6
wp36 2022-06-15 19:00:32.0 39.4 5661.1 2867.2 6502.4 26.6
wp7 2022-06-15 19:00:19.0 39.3 4176.2 2073.6 3507.2 26.6
wp6 2022-06-15 19:00:13.0 39.1 4458.3 4428.8 409.6 26.6
wp4 2022-06-15 19:00:05.0 39.1 2666.3 4505.6 409.6 26.6
wp36 2022-06-15 18:00:32.0 39.4 6326.7 768.0 3993.6 26.7
wp7 2022-06-15 18:00:19.0 39.2 2512.1 6528.0 4019.2 26.7
wp6 2022-06-15 18:00:13.0 39.1 5149.3 2432.0 5196.8 26.8
wp4 2022-06-15 18:00:05.0 39.1 1539.9 2560.0 409.6 26.7
wp7 2022-06-15 17:00:39.0 39.2 2512.0 5529.6 1868.8 26.9
wp6 2022-06-15 17:00:13.0 39.1 3306.1 1459.2 6528.0 26.9
wp36 2022-06-15 17:00:12.0 39.3 1462.7 6118.4 4812.8 26.8
wp4 2022-06-15 17:00:05.0 39.1 2717.5 1792.0 409.6 26.8
wp36 2022-06-15 16:01:52.0 39.3 4150.8 6220.8 588.8 26.8
wp7 2022-06-15 16:00:19.0 39.2 207.8 5734.4 2739.2 27.1
wp6 2022-06-15 16:00:13.0 39.1 5379.7 1408.0 2560.0 26.9
wp4 2022-06-15 16:00:05.0 39.1 2282.3 1843.2 409.6 26.9
wp7 2022-06-15 15:00:19.0 39.3 3919.8 358.4 3328.0 27.1
wp6 2022-06-15 15:00:14.0 39.1 797.3 2585.6 4147.2 27.0
wp36 2022-06-15 15:00:12.0 39.4 694.6 563.2 2048.0 27.0
wp4 2022-06-15 15:00:05.0 39.1 515.9 2816.0 409.6 26.9
wp7 2022-06-15 14:00:19.0 39.3 1846.4 2534.4 2790.4 27.0
wp6 2022-06-15 14:00:14.0 39.1 1923.9 4710.4 409.6 26.9
wp36 2022-06-15 14:00:12.0 39.4 6224.2 2739.2 3507.2 27.0
wp4 2022-06-15 14:00:05.0 39.1 6147.9 4838.4 409.6 26.8
wp7 2022-06-15 13:10:19.0 39.3 1104.0 3763.2 4582.4 27.0
wp36 2022-06-15 13:01:12.0 39.4 4432.2 4377.6 4684.8 27.0
wp6 2022-06-15 13:00:14.0 39.1 6378.2 6246.4 5836.8 27.0
wp4 2022-06-15 13:00:05.0 39.1 1923.9 6297.6 409.6 27.0
wp36 2022-06-15 12:00:52.0 39.5 361.8 76.8 6425.6 27.1
wp7 2022-06-15 12:00:19.0 39.3 4483.3 6246.4 3328.0 27.0
wp6 2022-06-15 12:00:14.0 39.2 5968.7 2073.6 409.6 27.1
wp4 2022-06-15 12:00:05.0 39.2 259.9 2176.0 409.6 27.0
wp36 2022-06-15 11:01:32.0 39.5 1001.9 1152.0 2892.8 27.0
wp7 2022-06-15 11:00:19.0 39.4 1027.3 793.6 4352.0 27.0
wp6 2022-06-15 11:00:14.0 39.2 5584.3 2816.0 3686.4 26.9
wp4 2022-06-15 11:00:05.0 39.2 4125.5 3174.4 409.6 26.9
wp36 2022-06-15 10:00:32.0 39.5 3843.6 3302.4 460.8 26.8
wp7 2022-06-15 10:00:19.0 39.4 2128.3 2944.0 1228.8 26.9
wp6 2022-06-15 10:00:15.0 39.2 5302.9 4966.4 665.6 26.9
wp4 2022-06-15 10:00:05.0 39.2 2179.9 5145.6 409.6 26.9
wp36 2022-06-15 09:01:12.0 39.5 4099.6 3558.4 3635.2 26.6
wp7 2022-06-15 09:00:19.0 39.4 1565.1 3097.6 5708.8 26.7
wp6 2022-06-15 09:00:15.0 39.2 259.9 5222.4 409.6 26.7
wp4 2022-06-15 09:00:05.0 39.2 5610.3 5299.2 409.6 26.6
wp7 2022-06-15 08:00:19.0 39.4 5328.4 2124.8 1945.6 26.5
wp6 2022-06-15 08:00:15.0 39.2 5840.7 4275.2 409.6 26.5
wp36 2022-06-15 08:00:12.0 39.5 4304.4 2560.0 5145.6 26.5
wp4 2022-06-15 08:00:05.0 39.2 3920.7 4224.0 409.6 26.5
wp7 2022-06-15 07:00:19.0 39.4 2282.0 716.8 2508.8 26.5
wp6 2022-06-15 07:00:15.0 39.2 4586.3 2841.6 409.6 26.5
wp36 2022-06-15 07:00:12.0 39.5 1565.2 1049.6 5043.2 26.5
wp4 2022-06-15 07:00:05.0 39.2 1437.5 2636.8 409.6 26.5
wp7 2022-06-15 06:00:59.0 39.3 1616.4 5683.2 1459.2 26.5
wp36 2022-06-15 06:00:32.0 39.4 1053.2 6041.6 3788.8 26.5
wp6 2022-06-15 06:00:15.0 39.2 2896.7 1203.2 409.6 26.5
wp4 2022-06-15 06:00:05.0 39.2 1386.3 1280.0 409.6 26.5
wp7 2022-06-15 05:00:59.0 39.3 3280.3 4838.4 6348.8 26.5
wp6 2022-06-15 05:00:16.0 39.2 3280.7 384.0 409.6 26.5
wp36 2022-06-15 05:00:12.0 39.4 1334.8 5196.8 2508.8 26.5
wp4 2022-06-15 05:00:05.0 39.2 1667.9 358.4 409.6 26.5
wp36 2022-06-15 04:00:32.0 39.4 4253.1 5452.8 4710.4 26.5
wp7 2022-06-15 04:00:19.0 39.3 3715.5 5171.2 6118.4 26.5
wp6 2022-06-15 04:00:16.0 39.2 3818.3 691.2 409.6 26.5
wp4 2022-06-15 04:00:05.0 39.2 2282.3 691.2 409.6 26.5
wp7 2022-06-15 03:00:19.0 39.3 3997.1 5043.2 5401.6 26.5
wp6 2022-06-15 03:00:16.0 39.2 3383.1 588.8 409.6 26.5
wp36 2022-06-15 03:00:12.0 39.4 2973.1 5376.0 5529.6 26.5
wp4 2022-06-15 03:00:05.0 39.2 3178.3 665.6 409.6 26.5
wp7 2022-06-15 02:00:18.0 39.3 208.3 5657.6 4787.2 26.6
wp6 2022-06-15 02:00:16.0 39.2 6147.9 1075.2 409.6 26.5
wp36 2022-06-15 02:00:12.0 39.4 54.7 5913.6 3507.2 26.6
wp4 2022-06-15 02:00:05.0 39.2 4842.3 1075.2 409.6 26.5
wp7 2022-06-15 01:00:18.0 39.4 2665.9 25.6 4403.2 26.6
wp6 2022-06-15 01:00:16.0 39.2 771.9 2252.8 409.6 26.6
wp36 2022-06-15 01:00:12.0 39.5 2333.1 435.2 3276.8 26.6
wp4 2022-06-15 01:00:05.0 39.2 5405.5 2176.0 409.6 26.5
wp7 2022-06-15 00:00:18.0 39.4 2998.7 793.6 5171.2 26.6
wp6 2022-06-15 00:00:17.0 39.2 1693.5 2918.4 409.6 26.6
wp36 2022-06-15 00:00:12.0 39.5 2870.7 1203.2 3020.8 26.6
wp4 2022-06-15 00:00:05.0 39.2 5584.7 2790.4 409.6 26.5
wp7 2022-06-14 23:00:18.0 39.4 3280.3 896.0 4710.4 26.6
wp6 2022-06-14 23:00:17.0 39.2 1309.5 3072.0 409.6 26.6
wp36 2022-06-14 23:00:12.0 39.5 3382.7 1254.4 2995.2 26.6
wp4 2022-06-14 23:00:05.0 39.2 5917.5 2969.6 409.6 26.5
wp7 2022-06-14 22:00:18.0 39.3 2384.3 6195.2 4377.6 26.6
wp6 2022-06-14 22:00:17.0 39.2 6403.8 1638.4 5811.2 26.5
wp36 2022-06-14 22:00:12.0 39.5 2589.1 76.8 2534.4 26.6
wp4 2022-06-14 22:00:05.0 39.2 5431.1 1843.2 409.6 26.5
wp7 2022-06-14 21:00:18.0 39.4 4662.7 128.0 3916.8 26.6
wp6 2022-06-14 21:00:17.0 39.2 1411.8 2150.4 6348.8 26.6
wp36 2022-06-14 21:00:12.0 39.5 3945.9 486.4 3225.6 26.6
wp4 2022-06-14 21:00:05.0 39.2 6506.3 2150.4 409.6 26.5
wp7 2022-06-14 20:00:18.0 39.3 3920.3 5222.4 5350.4 26.6
wp6 2022-06-14 20:00:17.0 39.2 1258.3 588.8 409.6 26.6
wp36 2022-06-14 20:00:12.0 39.4 4048.3 5529.6 3328.0 26.6
wp4 2022-06-14 20:00:05.0 39.2 413.5 486.4 409.6 26.6
wp6 2022-06-14 19:00:18.0 39.1 2794.2 5504.0 4992.0 26.6
wp7 2022-06-14 19:00:18.0 39.3 5405.1 3481.6 4889.6 26.6
wp36 2022-06-14 19:00:12.0 39.4 5174.7 3891.2 3788.8 26.6
wp4 2022-06-14 19:00:05.0 39.1 1539.9 5785.6 409.6 26.6
wp6 2022-06-14 18:00:18.0 39.1 2870.9 3123.2 0.0 26.7
wp7 2022-06-14 18:00:18.0 39.3 1053.1 921.6 3942.4 26.7
wp36 2022-06-14 18:00:12.0 39.4 643.5 1254.4 3481.6 26.7
wp4 2022-06-14 18:00:05.0 39.1 2051.9 3200.0 409.6 26.6
wp6 2022-06-14 17:00:18.0 39.1 4970.2 2611.2 6374.4 26.7
wp7 2022-06-14 17:00:18.0 39.3 3203.5 435.2 3174.4 26.8
wp36 2022-06-14 17:00:12.0 39.4 6377.9 665.6 1305.6 26.7
wp4 2022-06-14 17:00:05.0 39.1 3690.3 2560.0 409.6 26.6
wp4 2022-06-14 16:00:25.0 39.1 3613.5 2304.0 409.6 26.6
wp6 2022-06-14 16:00:18.0 39.1 1591.1 2304.0 409.6 26.7
wp7 2022-06-14 16:00:18.0 39.2 1437.1 6502.4 2611.2 26.8
wp36 2022-06-14 16:00:12.0 39.4 4253.1 332.8 1459.2 26.7
wp6 2022-06-14 15:00:18.0 39.1 157.5 3302.4 409.6 26.7
wp7 2022-06-14 15:00:18.0 39.3 4509.1 1126.4 204.8 26.8
wp36 2022-06-14 15:00:12.0 39.4 6070.7 1382.4 5888.0 26.6
wp4 2022-06-14 15:00:05.0 39.1 5328.7 3609.6 409.6 26.6
wp6 2022-06-14 14:00:19.0 39.1 822.9 4608.0 5529.6 26.7
wp7 2022-06-14 14:00:18.0 39.3 5891.4 2406.4 3404.8 26.7
wp36 2022-06-14 14:00:12.0 39.4 489.9 2841.6 5248.0 26.7
wp4 2022-06-14 14:00:05.0 39.1 746.3 4966.4 409.6 26.8
wp6 2022-06-14 13:00:19.0 39.1 643.6 6528.0 1100.8 27.2
wp7 2022-06-14 13:00:18.0 39.3 3254.4 4352.0 921.6 27.3
wp36 2022-06-14 13:00:12.0 39.4 3971.5 4556.8 51.2 26.9
wp4 2022-06-14 13:00:05.0 39.2 4125.5 128.0 409.6 27.0
wp6 2022-06-14 12:00:19.0 39.2 6071.1 2252.8 409.6 26.8
wp7 2022-06-14 12:00:18.0 39.4 5328.4 204.8 1152.0 26.8
wp36 2022-06-14 12:00:12.0 39.5 1795.6 256.0 537.6 26.9
wp4 2022-06-14 12:00:05.0 39.2 6352.7 2380.8 409.6 26.7
wp6 2022-06-14 11:00:19.0 39.2 1770.2 3097.6 3507.2 27.0
wp7 2022-06-14 11:00:18.0 39.4 4790.7 870.4 2329.6 26.8
wp36 2022-06-14 11:00:12.0 39.5 2793.8 1024.0 2150.4 26.9
wp4 2022-06-14 11:00:05.0 39.2 6352.7 3328.0 409.6 26.8
wp6 2022-06-14 10:00:19.0 39.2 1642.3 3865.6 409.6 27.0
wp7 2022-06-14 10:00:18.0 39.4 3920.3 1587.2 204.8 26.9
wp36 2022-06-14 10:00:12.0 39.5 29.0 1894.4 3072.0 27.0
wp4 2022-06-14 10:00:05.0 39.2 5789.5 3942.4 409.6 26.8
wp7 2022-06-14 09:00:38.0 39.4 1539.5 1228.8 4403.2 26.8
wp36 2022-06-14 09:00:12.0 39.5 6045.1 1459.2 1305.6 26.8
wp4 2022-06-14 09:00:05.0 39.2 4355.9 3404.8 409.6 26.7
wp6 2022-06-14 09:00:00.0 39.2 3357.5 3584.0 409.6 26.9
wp7 2022-06-14 08:00:18.0 39.4 6147.5 486.4 5862.4 26.6
wp36 2022-06-14 08:00:12.0 39.5 1027.5 768.0 2662.4 26.7
wp4 2022-06-14 08:00:05.0 39.2 3152.7 2688.0 409.6 26.6
wp6 2022-06-14 08:00:00.0 39.2 2896.7 2790.4 409.6 26.7
wp7 2022-06-14 07:00:18.0 39.3 2640.3 4992.0 4505.6 26.6
wp36 2022-06-14 07:00:12.0 39.4 2230.7 5222.4 3532.8 26.6
wp4 2022-06-14 07:00:05.0 39.2 5891.9 537.6 409.6 26.5
wp6 2022-06-14 07:00:00.0 39.2 2026.3 588.8 409.6 26.6
wp7 2022-06-14 06:00:17.0 39.3 1744.3 3891.2 4608.0 26.6
wp36 2022-06-14 06:00:12.0 39.4 1232.3 4198.4 2278.4 26.6
wp4 2022-06-14 06:00:05.0 39.1 5251.9 5913.6 409.6 26.5
wp6 2022-06-14 06:00:00.0 39.1 1002.3 6016.0 409.6 26.6
wp7 2022-06-14 05:00:17.0 39.3 1257.9 3276.8 4864.0 26.6
wp36 2022-06-14 05:00:12.0 39.4 950.7 3609.6 2892.8 26.6
wp4 2022-06-14 05:00:05.0 39.1 5021.5 5350.4 409.6 26.5
wp6 2022-06-14 05:00:00.0 39.1 6352.7 5504.0 409.6 26.5
wp7 2022-06-14 04:00:17.0 39.3 1616.3 3276.8 4454.4 26.6
wp36 2022-06-14 04:00:12.0 39.4 1206.7 3532.8 2764.8 26.6
wp4 2022-06-14 04:00:05.0 39.1 4995.9 5196.8 409.6 26.5
wp6 2022-06-14 04:00:01.0 39.1 362.3 5401.6 409.6 26.6
wp7 2022-06-14 03:00:17.0 39.3 925.1 4121.6 4121.6 26.6